Flight Track Log - Related Links

Times and Time Zones

All times are in EDT time to prevent confusion due to time zone crossing. See the JAL405 flight status page for this flight to view local times or setup timezone preferences in your user account.

Time Position Orientation Groundspeed Altitude Reporting Facility
EDT Latitude Longitude Course Direction KTS MPH feet Rate Location/Type
Mon 10:48:00 PM 36.1024 140.1811 334° Northwest  Level Estimated
Mon 10:49:00 PM 36.2149 140.1122 334° Northwest  Level Estimated
Mon 10:49:07 PM 35.5110 140.4800 334° Northwest 262 302 9,600  Level FlightAware ADS-B
Mon 10:49:37 PM 35.5170 140.4360 280° West 273 314 10,800 2,400 Climbing FlightAware ADS-B
Mon 10:49:52 PM 35.5300 140.4180 312° West 282 325 11,400 2,400 Climbing FlightAware ADS-B
Mon 10:50:02 PM 35.5410 140.4100 329° Northwest 296 341 11,800 1,067 Climbing FlightAware ADS-B
Mon 10:50:37 PM 35.5910 140.3790 333° Northwest 340 391 12,200 353 Climbing FlightAware ADS-B
Mon 10:51:27 PM 35.6610 140.3380 335° Northwest 342 394 12,300 67 Climbing FlightAware ADS-B
Mon 10:52:07 PM 35.7170 140.3050 334° Northwest 314 361 12,300 -71 Level FlightAware ADS-B
Mon 10:52:52 PM 35.7750 140.2630 330° Northwest 309 356 12,200 -71 Descending FlightAware ADS-B
Mon 10:53:32 PM 35.8240 140.2230 327° Northwest 313 360 12,200  Level FlightAware ADS-B
Mon 10:54:12 PM 35.8750 140.1810 326° Northwest 309 356 12,200  Level FlightAware ADS-B
Mon 10:54:57 PM 35.9250 140.1400 326° Northwest 325 374 12,200  Level FlightAware ADS-B
Mon 10:55:32 PM 35.9740 140.1000 327° Northwest 327 376 12,200 261 Level FlightAware ADS-B
Mon 10:56:52 PM 36.0720 140.0210 327° Northwest 327 376 12,700 417 Climbing FlightAware ADS-B
Mon 10:57:27 PM 36.1190 139.9830 327° Northwest 327 376 13,000 1,553 Climbing FlightAware ADS-B
Mon 10:58:17 PM 36.1860 139.9290 327° Northwest 332 382 14,900 1,850 Climbing FlightAware ADS-B
Mon 10:59:27 PM 36.2740 139.8550 326° Northwest 334 384 16,700 1,582 Climbing FlightAware ADS-B
Mon 11:00:07 PM 36.3170 139.8020 315° West 339 390 17,800 1,650 Climbing FlightAware ADS-B
Mon 11:00:47 PM 36.3640 139.7360 311° West 362 417 18,900 1,400 Climbing FlightAware ADS-B
Mon 11:01:07 PM 36.3900 139.7060 317° Northwest 391 450 19,200 1,500 Climbing FlightAware ADS-B
Mon 11:01:47 PM 36.4620 139.6720 339° North 423 487 20,400 1,137 Climbing FlightAware ADS-B
Mon 11:02:42 PM 36.5640 139.6360 344° North 422 486 21,000 695 Climbing FlightAware ADS-B
Mon 11:03:22 PM 36.6360 139.6100 344° North 423 487 21,500 1,200 Climbing FlightAware ADS-B
Mon 11:04:07 PM 36.7080 139.5830 343° North 433 498 22,700 1,694 Climbing FlightAware ADS-B
Mon 11:04:47 PM 36.7970 139.5480 343° North 411 473 23,900 1,624 Climbing FlightAware ADS-B
Mon 11:05:32 PM 36.8780 139.5020 336° Northwest 410 472 25,000 1,059 Climbing FlightAware ADS-B
Mon 11:06:12 PM 36.9420 139.4570 331° Northwest 430 495 25,400 640 Climbing FlightAware ADS-B
Mon 11:06:47 PM 37.0120 139.4090 331° Northwest 446 513 25,800 525 Climbing FlightAware ADS-B
Mon 11:07:32 PM 37.0840 139.3590 331° Northwest 443 510 26,100 467 Climbing FlightAware ADS-B
Mon 11:08:17 PM 37.1740 139.2980 332° Northwest 433 498 26,500 551 Climbing FlightAware ADS-B
Mon 11:10:00 PM 37.3643 139.1771 333° Northwest  Level Estimated
Mon 11:11:00 PM 37.4751 139.1064 333° Northwest  Level Estimated
Mon 11:12:00 PM 37.5858 139.0354 333° Northwest  Level Estimated
Mon 11:13:00 PM 37.6965 138.9643 333° Northwest  Level Estimated
Mon 11:14:00 PM 37.8072 138.8929 333° Northwest  Level Estimated
Mon 11:14:37 PM 37.8480 138.8300 333° Northwest 438 504 30,000  Level FlightAware ADS-B
Mon 11:15:12 PM 37.9130 138.7840 331° Northwest 429 494 30,000  Level FlightAware ADS-B
Mon 11:16:02 PM 37.9990 138.7230 331° Northwest 425 489 30,000  Level FlightAware ADS-B
Mon 11:16:37 PM 38.0630 138.6790 332° Northwest 427 491 30,000  Level FlightAware ADS-B
Mon 11:17:22 PM 38.1390 138.6250 331° Northwest 423 487 30,000  Level FlightAware ADS-B
Mon 11:19:00 PM 38.3194 138.5068 333° Northwest  Level Estimated
Mon 11:20:00 PM 38.4298 138.4342 333° Northwest  Level Estimated
Mon 11:21:00 PM 38.5401 138.3613 333° Northwest  Level Estimated
Mon 11:21:07 PM 38.5180 138.3540 333° Northwest 413 475 30,000  Level FlightAware ADS-B
Mon 11:23:00 PM 38.7257 138.2162 333° Northwest  Level Estimated
Mon 11:24:00 PM 38.8359 138.1427 333° Northwest  Level Estimated
Mon 11:24:52 PM 38.9790 138.2420 333° Northwest 504 580 30,000  Level FlightAware ADS-B
Mon 11:25:32 PM 39.0810 138.2500 North 502 578 30,000  Level FlightAware ADS-B
Mon 11:26:17 PM 39.1860 138.2560 North 500 575 30,000  Level FlightAware ADS-B
Mon 11:26:57 PM 39.2770 138.2560 360° North 499 574 30,000  Level FlightAware ADS-B
Mon 11:27:27 PM 39.3470 138.2560 360° North 501 577 30,000  Level FlightAware ADS-B
Mon 11:28:07 PM 39.4420 138.2560 360° North 495 570 30,000  Level FlightAware ADS-B
Mon 11:28:52 PM 39.5480 138.2560 360° North 502 578 30,000  Level FlightAware ADS-B
Mon 11:29:32 PM 39.6390 138.2560 360° North 501 577 30,000  Level FlightAware ADS-B
Mon 11:30:12 PM 39.7330 138.2550 360° North 500 575 30,000  Level FlightAware ADS-B
Mon 11:30:57 PM 39.8350 138.2550 360° North 500 575 30,000  Level FlightAware ADS-B
Mon 11:31:32 PM 39.9100 138.2550 360° North 501 577 30,000  Level FlightAware ADS-B
Mon 11:32:37 PM 40.0650 138.2550 360° North 498 573 30,000  Level FlightAware ADS-B
Mon 11:33:17 PM 40.1630 138.2540 360° North 499 574 30,000  Level FlightAware ADS-B
Mon 11:33:57 PM 40.2490 138.2540 360° North 498 573 30,000  Level FlightAware ADS-B
Mon 11:34:42 PM 40.3590 138.2540 360° North 496 571 30,000  Level FlightAware ADS-B
Mon 11:35:22 PM 40.4440 138.2540 360° North 497 572 30,000  Level FlightAware ADS-B
Mon 11:36:02 PM 40.5420 138.2540 360° North 500 575 30,000  Level FlightAware ADS-B
Mon 11:36:47 PM 40.6520 138.2530 360° North 502 578 30,000  Level FlightAware ADS-B
Mon 11:37:27 PM 40.7390 138.2530 360° North 502 578 30,000  Level FlightAware ADS-B
Mon 11:38:12 PM 40.8560 138.2530 360° North 502 578 30,000  Level FlightAware ADS-B
Mon 11:38:42 PM 40.9270 138.2530 360° North 502 578 30,000  Level FlightAware ADS-B
Mon 11:39:27 PM 41.0280 138.2530 360° North 511 588 30,000  Level FlightAware ADS-B
Mon 11:40:07 PM 41.1220 138.2520 360° North 511 588 30,000  Level FlightAware ADS-B
Mon 11:40:52 PM 41.2270 138.2520 360° North 511 588 30,000  Level FlightAware ADS-B
Mon 11:41:37 PM 41.3320 138.2520 360° North 511 588 30,000  Level FlightAware ADS-B
Mon 11:42:22 PM 41.4360 138.2520 360° North 500 575 30,000  Level FlightAware ADS-B
Mon 11:43:02 PM 41.5290 138.2510 360° North 498 573 30,000  Level FlightAware ADS-B
Mon 11:43:47 PM 41.6360 138.2510 360° North 497 572 30,000  Level FlightAware ADS-B
Mon 11:44:27 PM 41.7230 138.2510 360° North 496 571 30,000  Level FlightAware ADS-B
Mon 11:45:07 PM 41.8270 138.2510 360° North 501 577 30,000  Level FlightAware ADS-B
Mon 11:46:32 PM 42.0250 138.2500 360° North 501 577 30,000  Level FlightAware ADS-B
Mon 11:47:12 PM 42.1100 138.2500 360° North 501 577 30,000  Level FlightAware ADS-B
Mon 11:47:57 PM 42.2210 138.2500 360° North 500 575 30,000  Level FlightAware ADS-B
Mon 11:48:32 PM 42.3000 138.2490 359° North 499 574 30,000  Level FlightAware ADS-B
Mon 11:49:22 PM 42.4100 138.2490 360° North 496 571 30,000  Level FlightAware ADS-B
Mon 11:50:02 PM 42.5020 138.2490 360° North 481 554 30,000  Level FlightAware ADS-B
Mon 11:50:47 PM 42.5970 138.2480 360° North 484 557 30,000  Level FlightAware ADS-B
Mon 11:51:27 PM 42.6730 138.2460 359° North 484 557 30,000  Level FlightAware ADS-B
Mon 11:52:07 PM 42.7490 138.2440 359° North 484 557 30,000  Level FlightAware ADS-B
Mon 11:52:47 PM 42.8250 138.2430 359° North 484 557 30,000  Level FlightAware ADS-B
Mon 11:53:27 PM 42.9010 138.2410 359° North 484 557 30,000  Level FlightAware ADS-B
Mon 11:54:17 PM 42.9970 138.2390 359° North 484 557 30,000 75 Level FlightAware ADS-B
Mon 11:56:00 PM 43.1857 138.1030 332° Northwest  Level Estimated
Mon 11:57:00 PM 43.2955 138.0234 332° Northwest  Level Estimated
Mon 11:58:00 PM 43.4053 137.9435 332° Northwest  Level Estimated
Mon 11:59:00 PM 43.5150 137.8633 332° Northwest  Level Estimated
Tue 12:00:00 AM 43.6247 137.7828 332° Northwest  Level Estimated
Tue 12:01:00 AM 43.7343 137.7020 332° Northwest  Level Estimated
Tue 12:02:00 AM 43.8441 137.6208 332° Northwest  Level Estimated
Tue 12:03:00 AM 43.9537 137.5393 332° Northwest  Level Estimated
Tue 12:04:00 AM 44.0633 137.4575 332° Northwest  Level Estimated
Tue 12:05:00 AM 44.1729 137.3754 332° Northwest  Level Estimated
Tue 12:06:00 AM 44.2824 137.2930 332° Northwest  Level Estimated
Tue 12:07:00 AM 44.3918 137.2103 332° Northwest  Level Estimated
Tue 12:08:00 AM 44.5012 137.1273 332° Northwest  Level Estimated
Tue 12:09:00 AM 44.6105 137.0440 332° Northwest  Level Estimated
Tue 12:10:00 AM 44.7197 136.9603 331° Northwest  Level Estimated
Tue 12:11:00 AM 44.8289 136.8764 331° Northwest  Level Estimated
Tue 12:12:00 AM 44.9380 136.7921 331° Northwest  Level Estimated
Tue 12:13:00 AM 45.0471 136.7075 331° Northwest  Level Estimated
Tue 12:14:00 AM 45.1561 136.6226 331° Northwest  Level Estimated
Tue 12:15:00 AM 45.2650 136.5373 331° Northwest  Level Estimated
Tue 12:16:00 AM 45.3739 136.4517 331° Northwest  Level Estimated
Tue 12:17:00 AM 45.4827 136.3658 331° Northwest  Level Estimated
Tue 12:18:00 AM 45.5914 136.2796 331° Northwest  Level Estimated
Tue 12:19:00 AM 45.7001 136.1930 331° Northwest  Level Estimated
Tue 12:20:00 AM 45.8087 136.1061 331° Northwest  Level Estimated
Tue 12:20:02 AM 46.3550 138.0790 331° Northwest 466 536 32,000  Level FlightAware ADS-B
Tue 12:20:52 AM 46.4640 138.0720 357° North 463 533 32,000  Level FlightAware ADS-B
Tue 12:21:32 AM 46.5410 138.0560 352° North 462 532 32,000  Level FlightAware ADS-B
Tue 12:22:22 AM 46.6400 138.0100 342° North 461 531 32,000  Level FlightAware ADS-B
Tue 12:23:12 AM 46.7500 137.9560 341° North 461 531 32,000  Level FlightAware ADS-B
Tue 12:23:52 AM 46.8290 137.9180 342° North 459 528 32,000  Level FlightAware ADS-B
Tue 12:24:47 AM 46.9430 137.8620 341° North 458 527 32,000  Level FlightAware ADS-B
Tue 12:25:32 AM 47.0310 137.8190 342° North 457 526 32,000  Level FlightAware ADS-B
Tue 12:26:12 AM 47.1110 137.7790 341° North 459 528 32,000  Level FlightAware ADS-B
Tue 12:26:57 AM 47.2050 137.7330 342° North 459 528 32,000  Level FlightAware ADS-B
Tue 12:27:37 AM 47.2840 137.6940 341° North 460 529 32,000  Level FlightAware ADS-B
Tue 12:28:17 AM 47.3610 137.6550 341° North 459 528 32,000  Level FlightAware ADS-B
Tue 12:28:52 AM 47.4370 137.6170 341° North 456 525 32,000  Level FlightAware ADS-B
Tue 12:29:42 AM 47.5290 137.5710 341° North 451 519 32,000  Level FlightAware ADS-B
Tue 12:30:27 AM 47.6270 137.5220 341° North 452 520 32,000  Level FlightAware ADS-B
Tue 12:31:07 AM 47.7040 137.4830 341° North 450 518 32,000  Level FlightAware ADS-B
Tue 12:31:47 AM 47.7830 137.4430 341° North 450 518 32,000  Level FlightAware ADS-B
Tue 12:32:27 AM 47.8600 137.4040 341° North 451 519 32,000  Level FlightAware ADS-B
Tue 12:33:12 AM 47.9550 137.3550 341° North 449 517 32,000  Level FlightAware ADS-B
Tue 12:33:57 AM 48.0420 137.3110 341° North 449 517 32,000  Level FlightAware ADS-B
Tue 12:34:37 AM 48.1210 137.2700 341° North 449 517 32,000  Level FlightAware ADS-B
Tue 12:35:22 AM 48.1980 137.2310 341° North 449 517 32,000  Level FlightAware ADS-B
Tue 12:35:57 AM 48.2680 137.1950 341° North 448 516 32,000  Level FlightAware ADS-B
Tue 12:36:42 AM 48.3620 137.1460 341° North 447 514 32,000  Level FlightAware ADS-B
Tue 12:37:27 AM 48.4510 137.1000 341° North 451 519 32,000  Level FlightAware ADS-B
Tue 12:38:02 AM 48.5190 137.0640 341° North 450 518 32,000  Level FlightAware ADS-B
Tue 12:39:07 AM 48.6450 136.9990 341° North 446 513 32,000  Level FlightAware ADS-B
Tue 12:39:42 AM 48.7220 136.9580 341° North 446 513 32,000  Level FlightAware ADS-B
Tue 12:40:27 AM 48.7980 136.9180 341° North 447 514 32,000  Level FlightAware ADS-B
Tue 12:41:12 AM 48.8940 136.8660 340° North 448 516 32,000  Level FlightAware ADS-B
Tue 12:41:52 AM 48.9720 136.8250 341° North 450 518 32,000  Level FlightAware ADS-B
Tue 12:42:37 AM 49.0630 136.7760 341° North 450 518 32,000  Level FlightAware ADS-B
Tue 12:43:17 AM 49.1300 136.7390 340° North 450 518 32,000  Level FlightAware ADS-B
Tue 12:43:57 AM 49.2070 136.6980 341° North 450 518 32,000  Level FlightAware ADS-B
Tue 12:44:42 AM 49.3030 136.6450 340° North 450 518 32,000  Level FlightAware ADS-B
Tue 12:45:22 AM 49.3860 136.6000 341° North 451 519 32,000  Level FlightAware ADS-B
Tue 12:46:07 AM 49.4780 136.5370 336° Northwest 453 521 32,000  Level FlightAware ADS-B
Tue 12:46:47 AM 49.5340 136.4880 330° Northwest 456 525 32,000  Level FlightAware ADS-B
Tue 12:47:27 AM 49.6100 136.4200 330° Northwest 457 526 32,000  Level FlightAware ADS-B
Tue 12:48:37 AM 49.7440 136.2910 328° Northwest 460 529 32,000  Level FlightAware ADS-B
Tue 12:49:32 AM 49.8350 136.2030 328° Northwest 456 525 32,000  Level FlightAware ADS-B
Tue 12:50:12 AM 49.9100 136.1320 329° Northwest 457 526 32,000  Level FlightAware ADS-B
Tue 12:50:57 AM 49.9850 136.0590 328° Northwest 456 525 32,000  Level FlightAware ADS-B
Tue 12:51:42 AM 50.0750 135.9710 328° Northwest 458 527 32,000  Level FlightAware ADS-B
Tue 12:52:22 AM 50.1460 135.9020 328° Northwest 459 528 32,000  Level FlightAware ADS-B
Tue 12:53:07 AM 50.2220 135.8270 328° Northwest 457 526 32,000  Level FlightAware ADS-B
Tue 12:53:42 AM 50.2880 135.7630 328° Northwest 458 527 32,000  Level FlightAware ADS-B
Tue 12:54:42 AM 50.3960 135.6570 328° Northwest 456 525 32,000  Level FlightAware ADS-B
Tue 12:55:17 AM 50.4580 135.5950 328° Northwest 455 524 32,000  Level FlightAware ADS-B
Tue 12:56:12 AM 50.5490 135.5040 328° Northwest 456 525 32,000  Level FlightAware ADS-B
Tue 12:56:52 AM 50.6220 135.4310 328° Northwest 456 525 32,000  Level FlightAware ADS-B
Tue 12:57:47 AM 50.7210 135.3320 328° Northwest 457 526 32,000  Level FlightAware ADS-B
Tue 12:58:27 AM 50.7900 135.2630 328° Northwest 457 526 32,000  Level FlightAware ADS-B
Tue 12:59:02 AM 50.8530 135.1980 327° Northwest 458 527 32,000  Level FlightAware ADS-B
Tue 01:00:07 AM 50.9660 135.0860 328° Northwest 457 526 32,000  Level FlightAware ADS-B
Tue 01:00:47 AM 51.0400 135.0140 329° Northwest 455 524 32,000  Level FlightAware ADS-B
Tue 01:01:22 AM 51.1040 134.9500 328° Northwest 457 526 32,000  Level FlightAware ADS-B
Tue 01:02:12 AM 51.1980 134.8570 328° Northwest 459 528 32,000  Level FlightAware ADS-B
Tue 01:02:52 AM 51.2710 134.7840 328° Northwest 457 526 32,000  Level FlightAware ADS-B
Tue 01:03:47 AM 51.3580 134.6960 328° Northwest 457 526 32,000  Level FlightAware ADS-B
Tue 01:04:27 AM 51.4490 134.6050 328° Northwest 457 526 32,000  Level FlightAware ADS-B
Tue 01:05:27 AM 51.5420 134.5110 328° Northwest 457 526 32,000  Level FlightAware ADS-B
Tue 01:06:02 AM 51.6100 134.4430 328° Northwest 457 526 32,000  Level FlightAware ADS-B
Tue 01:06:52 AM 51.6950 134.3560 328° Northwest 456 525 32,000  Level FlightAware ADS-B
Tue 01:07:32 AM 51.7550 134.2950 328° Northwest 458 527 32,000  Level FlightAware ADS-B
Tue 01:08:12 AM 51.8220 134.2250 327° Northwest 458 527 32,000  Level FlightAware ADS-B
Tue 01:08:52 AM 51.8820 134.1620 327° Northwest 458 527 32,000  Level FlightAware ADS-B
Tue 01:09:32 AM 51.9420 134.0980 327° Northwest 458 527 32,000  Level FlightAware ADS-B
Tue 01:10:22 AM 52.0180 134.0190 327° Northwest 458 527 32,000  Level FlightAware ADS-B
Tue 01:11:02 AM 52.0780 133.9550 327° Northwest 458 527 32,000  Level FlightAware ADS-B
Tue 01:11:42 AM 52.1390 133.8910 327° Northwest 458 527 32,000  Level FlightAware ADS-B
Tue 01:12:22 AM 52.1990 133.8270 327° Northwest 458 527 32,000  Level FlightAware ADS-B
Tue 01:13:02 AM 52.2600 133.7630 327° Northwest 458 527 32,000  Level FlightAware ADS-B
Tue 01:13:52 AM 52.3350 133.6830 327° Northwest 458 527 32,000  Level FlightAware ADS-B
Tue 01:14:32 AM 52.3960 133.6180 327° Northwest 458 527 32,000  Level FlightAware ADS-B
Tue 01:15:12 AM 52.4560 133.5540 327° Northwest 458 527 32,000  Level FlightAware ADS-B
Tue 01:15:52 AM 52.5160 133.4900 327° Northwest 458 527 32,000  Level FlightAware ADS-B
Tue 01:16:32 AM 52.5770 133.4250 327° Northwest 458 527 32,000  Level FlightAware ADS-B
Tue 01:17:22 AM 52.6520 133.3440 327° Northwest 458 527 32,000  Level FlightAware ADS-B
Tue 01:19:00 AM 52.8242 133.1667 328° Northwest  Level Estimated
Tue 01:20:00 AM 52.9295 133.0575 328° Northwest  Level Estimated
Tue 01:21:00 AM 53.0346 132.9477 328° Northwest  Level Estimated
Tue 01:22:00 AM 53.1397 132.8374 328° Northwest  Level Estimated
Tue 01:23:00 AM 53.2447 132.7265 328° Northwest  Level Estimated
Tue 01:24:00 AM 53.3495 132.6151 328° Northwest  Level Estimated
Tue 01:25:00 AM 53.4543 132.5032 328° Northwest  Level Estimated
Tue 01:26:00 AM 53.5590 132.3907 327° Northwest  Level Estimated
Tue 01:27:00 AM 53.6635 132.2776 327° Northwest  Level Estimated
Tue 01:28:00 AM 53.7680 132.1640 327° Northwest  Level Estimated
Tue 01:29:00 AM 53.8723 132.0499 327° Northwest  Level Estimated
Tue 01:30:00 AM 53.9765 131.9351 327° Northwest  Level Estimated
Tue 01:31:00 AM 54.0807 131.8198 327° Northwest  Level Estimated
Tue 01:32:00 AM 54.1847 131.7039 327° Northwest  Level Estimated
Tue 01:33:00 AM 54.2886 131.5874 327° Northwest  Level Estimated
Tue 01:34:00 AM 54.3923 131.4703 327° Northwest  Level Estimated
Tue 01:35:00 AM 54.4960 131.3526 327° Northwest  Level Estimated
Tue 01:36:00 AM 54.5996 131.2343 327° Northwest  Level Estimated
Tue 01:37:00 AM 54.7030 131.1155 326° Northwest  Level Estimated
Tue 01:38:00 AM 54.8063 130.9960 326° Northwest  Level Estimated
Tue 01:38:27 AM 54.9840 130.2640 326° Northwest 470 541 32,000  Level FlightAware ADS-B
Tue 01:39:12 AM 55.0560 130.1580 320° Northwest 470 541 32,000  Level FlightAware ADS-B
Tue 01:39:57 AM 55.1160 130.0670 319° Northwest 470 541 32,000  Level FlightAware ADS-B
Tue 01:40:37 AM 55.1720 129.9820 319° Northwest 470 541 32,000  Level FlightAware ADS-B
Tue 01:41:17 AM 55.2280 129.8970 319° Northwest 470 541 32,000  Level FlightAware ADS-B
Tue 01:41:57 AM 55.2830 129.8120 319° Northwest 470 541 32,000  Level FlightAware ADS-B
Tue 01:42:42 AM 55.4030 129.6410 321° Northwest 473 544 32,000  Level FlightAware ADS-B
Tue 01:43:27 AM 55.4790 129.5270 320° Northwest 473 544 32,000  Level FlightAware ADS-B
Tue 01:44:07 AM 55.5460 129.4260 320° Northwest 473 544 32,000  Level FlightAware ADS-B
Tue 01:44:52 AM 55.6170 129.3180 319° Northwest 472 543 32,000  Level FlightAware ADS-B
Tue 01:45:32 AM 55.6840 129.2160 319° Northwest 471 542 32,000  Level FlightAware ADS-B
Tue 01:46:37 AM 55.7950 129.0460 319° Northwest 470 541 32,000  Level FlightAware ADS-B
Tue 01:47:22 AM 55.8640 128.9390 319° Northwest 470 541 32,000  Level FlightAware ADS-B
Tue 01:48:02 AM 55.9340 128.8310 319° Northwest 470 541 32,000  Level FlightAware ADS-B
Tue 01:48:57 AM 56.0150 128.7030 319° Northwest 471 542 32,000  Level FlightAware ADS-B
Tue 01:49:47 AM 56.0840 128.5920 318° Northwest 471 542 32,000  Level FlightAware ADS-B
Tue 01:50:27 AM 56.1390 128.5030 318° Northwest 471 542 32,000  Level FlightAware ADS-B
Tue 01:51:07 AM 56.1940 128.4140 318° Northwest 471 542 32,000  Level FlightAware ADS-B
Tue 01:51:47 AM 56.2490 128.3250 318° Northwest 471 542 32,000  Level FlightAware ADS-B
Tue 01:52:27 AM 56.3040 128.2360 318° Northwest 471 542 32,000  Level FlightAware ADS-B
Tue 01:53:17 AM 56.3730 128.1240 318° Northwest 471 542 32,000  Level FlightAware ADS-B
Tue 01:53:57 AM 56.4280 128.0340 318° Northwest 471 542 32,000  Level FlightAware ADS-B
Tue 01:54:37 AM 56.4830 127.9440 318° Northwest 471 542 32,000  Level FlightAware ADS-B
Tue 01:55:17 AM 56.5380 127.8550 318° Northwest 471 542 32,000  Level FlightAware ADS-B
Tue 01:55:57 AM 56.5930 127.7650 318° Northwest 471 542 32,000  Level FlightAware ADS-B
Tue 01:56:47 AM 56.6620 127.6520 318° Northwest 471 542 32,000  Level FlightAware ADS-B
Tue 01:57:27 AM 56.7170 127.5620 318° Northwest 471 542 32,000  Level FlightAware ADS-B
Tue 01:58:07 AM 56.7720 127.4710 318° Northwest 471 542 32,000 11 Level FlightAware ADS-B
Tue 02:00:00 AM 56.9599 127.2160 324° Northwest  Level Estimated
Tue 02:01:00 AM 57.0594 127.0795 323° Northwest  Level Estimated
Tue 02:02:00 AM 57.1588 126.9424 323° Northwest  Level Estimated
Tue 02:03:00 AM 57.2581 126.8044 323° Northwest  Level Estimated
Tue 02:04:00 AM 57.3572 126.6658 323° Northwest  Level Estimated
Tue 02:05:00 AM 57.4561 126.5264 323° Northwest  Level Estimated
Tue 02:06:00 AM 57.5549 126.3862 323° Northwest  Level Estimated
Tue 02:07:00 AM 57.6535 126.2452 323° Northwest  Level Estimated
Tue 02:08:00 AM 57.7520 126.1035 323° Northwest  Level Estimated
Tue 02:09:00 AM 57.8503 125.9611 322° Northwest  Level Estimated
Tue 02:10:00 AM 57.9485 125.8178 322° Northwest  Level Estimated
Tue 02:11:00 AM 58.0465 125.6738 322° Northwest  Level Estimated
Tue 02:12:00 AM 58.1443 125.5289 322° Northwest  Level Estimated
Tue 02:13:00 AM 58.2420 125.3833 322° Northwest  Level Estimated
Tue 02:14:00 AM 58.3395 125.2369 322° Northwest  Level Estimated
Tue 02:15:00 AM 58.4368 125.0896 322° Northwest  Level Estimated
Tue 02:16:00 AM 58.5340 124.9416 322° Northwest  Level Estimated
Tue 02:17:00 AM 58.6310 124.7927 321° Northwest  Level Estimated
Tue 02:18:00 AM 58.7278 124.6430 321° Northwest  Level Estimated
Tue 02:19:00 AM 58.8244 124.4924 321° Northwest  Level Estimated
Tue 02:20:00 AM 58.9209 124.3410 321° Northwest  Level Estimated
Tue 02:21:00 AM 59.0172 124.1888 321° Northwest  Level Estimated
Tue 02:22:00 AM 59.1133 124.0357 321° Northwest  Level Estimated
Tue 02:23:00 AM 59.2092 123.8818 321° Northwest  Level Estimated
Tue 02:24:00 AM 59.3050 123.7270 320° Northwest  Level Estimated
Tue 02:25:00 AM 59.4005 123.5713 320° Northwest  Level Estimated
Tue 02:26:00 AM 59.4959 123.4147 320° Northwest  Level Estimated
Tue 02:27:00 AM 59.5911 123.2573 320° Northwest  Level Estimated
Tue 02:28:00 AM 59.6861 123.0989 320° Northwest  Level Estimated
Tue 02:29:00 AM 59.7808 122.9397 320° Northwest  Level Estimated
Tue 02:30:00 AM 59.8755 122.7795 320° Northwest  Level Estimated
Tue 02:31:00 AM 59.9699 122.6184 320° Northwest  Level Estimated
Tue 02:32:00 AM 60.0641 122.4565 319° Northwest  Level Estimated
Tue 02:33:00 AM 60.1581 122.2935 319° Northwest  Level Estimated
Tue 02:34:00 AM 60.2519 122.1297 319° Northwest  Level Estimated
Tue 02:35:00 AM 60.3455 121.9649 319° Northwest  Level Estimated
Tue 02:36:00 AM 60.4389 121.7992 319° Northwest  Level Estimated
Tue 02:37:00 AM 60.5320 121.6327 319° Northwest  Level Estimated
Tue 02:38:00 AM 60.6249 121.4653 319° Northwest  Level Estimated
Tue 02:39:00 AM 60.7175 121.2969 318° Northwest  Level Estimated
Tue 02:40:00 AM 60.8100 121.1276 318° Northwest  Level Estimated
Tue 02:41:00 AM 60.9022 120.9573 318° Northwest  Level Estimated
Tue 02:42:00 AM 60.9942 120.7859 318° Northwest  Level Estimated
Tue 02:43:00 AM 61.0860 120.6136 318° Northwest  Level Estimated
Tue 02:44:00 AM 61.1776 120.4403 318° Northwest  Level Estimated
Tue 02:45:00 AM 61.2689 120.2660 318° Northwest  Level Estimated
Tue 02:46:00 AM 61.3600 120.0907 317° Northwest  Level Estimated
Tue 02:47:00 AM 61.4509 119.9143 317° Northwest  Level Estimated
Tue 02:48:00 AM 61.5416 119.7369 317° Northwest  Level Estimated
Tue 02:49:00 AM 61.6320 119.5585 317° Northwest  Level Estimated
Tue 02:50:00 AM 61.7223 119.3788 317° Northwest  Level Estimated
Tue 02:51:00 AM 61.8124 119.1980 317° Northwest  Level Estimated
Tue 02:52:00 AM 61.9023 119.0162 316° Northwest  Level Estimated
Tue 02:53:00 AM 61.9919 118.8332 316° Northwest  Level Estimated
Tue 02:54:00 AM 62.0813 118.6492 316° Northwest  Level Estimated
Tue 02:55:00 AM 62.1704 118.4642 316° Northwest  Level Estimated
Tue 02:56:00 AM 62.2593 118.2780 316° Northwest  Level Estimated
Tue 02:57:00 AM 62.3479 118.0907 316° Northwest  Level Estimated
Tue 02:58:00 AM 62.4362 117.9024 315° West  Level Estimated
Tue 02:59:00 AM 62.5243 117.7129 315° West  Level Estimated
Tue 03:00:00 AM 62.6122 117.5223 315° West  Level Estimated
Tue 03:01:00 AM 62.6998 117.3305 315° West  Level Estimated
Tue 03:02:00 AM 62.7871 117.1376 315° West  Level Estimated
Tue 03:03:00 AM 62.8742 116.9436 315° West  Level Estimated
Tue 03:04:00 AM 62.9610 116.7484 314° West  Level Estimated
Tue 03:05:00 AM 63.0475 116.5521 314° West  Level Estimated
Tue 03:06:00 AM 63.1337 116.3549 314° West  Level Estimated
Tue 03:07:00 AM 63.2195 116.1565 314° West  Level Estimated
Tue 03:08:00 AM 63.3051 115.9569 314° West  Level Estimated
Tue 03:09:00 AM 63.3904 115.7561 314° West  Level Estimated
Tue 03:10:00 AM 63.4754 115.5542 313° West  Level Estimated
Tue 03:11:00 AM 63.5602 115.3510 313° West  Level Estimated
Tue 03:12:00 AM 63.6446 115.1467 313° West  Level Estimated
Tue 03:13:00 AM 63.7287 114.9411 313° West  Level Estimated
Tue 03:14:00 AM 63.8126 114.7343 313° West  Level Estimated
Tue 03:15:00 AM 63.8961 114.5262 312° West  Level Estimated
Tue 03:16:00 AM 63.9794 114.3169 312° West  Level Estimated
Tue 03:17:00 AM 64.0624 114.1064 312° West  Level Estimated
Tue 03:18:00 AM 64.1450 113.8946 312° West  Level Estimated
Tue 03:19:00 AM 64.2273 113.6816 312° West  Level Estimated
Tue 03:20:00 AM 64.3094 113.4672 311° West  Level Estimated
Tue 03:21:00 AM 64.3911 113.2516 311° West  Level Estimated
Tue 03:22:00 AM 64.4725 113.0348 311° West  Level Estimated
Tue 03:23:00 AM 64.5536 112.8166 311° West  Level Estimated
Tue 03:24:00 AM 64.6343 112.5971 311° West  Level Estimated
Tue 03:25:00 AM 64.7147 112.3763 311° West  Level Estimated
Tue 03:26:00 AM 64.7948 112.1543 310° West  Level Estimated
Tue 03:27:00 AM 64.8746 111.9308 310° West  Level Estimated
Tue 03:28:00 AM 64.9540 111.7061 310° West  Level Estimated
Tue 03:29:00 AM 65.0331 111.4800 310° West  Level Estimated
Tue 03:30:00 AM 65.1118 111.2526 310° West  Level Estimated
Tue 03:31:00 AM 65.1902 111.0239 309° West  Level Estimated
Tue 03:32:00 AM 65.2682 110.7937 309° West  Level Estimated
Tue 03:33:00 AM 65.3459 110.5623 309° West  Level Estimated
Tue 03:34:00 AM 65.4232 110.3294 309° West  Level Estimated
Tue 03:35:00 AM 65.5002 110.0952 308° West  Level Estimated
Tue 03:36:00 AM 65.5768 109.8596 308° West  Level Estimated
Tue 03:37:00 AM 65.6531 109.6226 308° West  Level Estimated
Tue 03:38:00 AM 65.7289 109.3842 308° West  Level Estimated
Tue 03:39:00 AM 65.8044 109.1444 308° West  Level Estimated
Tue 03:40:00 AM 65.8795 108.9032 307° West  Level Estimated
Tue 03:41:00 AM 65.9543 108.6606 307° West  Level Estimated
Tue 03:42:00 AM 66.0286 108.4166 307° West  Level Estimated
Tue 03:43:00 AM 66.1026 108.1711 307° West  Level Estimated
Tue 03:44:00 AM 66.1763 107.9239 306° West  Level Estimated
Tue 03:45:00 AM 66.2495 107.6752 306° West  Level Estimated
Tue 03:46:00 AM 66.3224 107.4251 306° West  Level Estimated
Tue 03:47:00 AM 66.3949 107.1736 306° West  Level Estimated
Tue 03:48:00 AM 66.4670 106.9205 306° West  Level Estimated
Tue 03:49:00 AM 66.5386 106.6660 305° West  Level Estimated
Tue 03:50:00 AM 66.6099 106.4101 305° West  Level Estimated
Tue 03:51:00 AM 66.6807 106.1526 305° West  Level Estimated
Tue 03:52:00 AM 66.7511 105.8937 305° West  Level Estimated
Tue 03:53:00 AM 66.8211 105.6334 304° West  Level Estimated
Tue 03:54:00 AM 66.8906 105.3715 304° West  Level Estimated
Tue 03:55:00 AM 66.9597 105.1081 304° West  Level Estimated
Tue 03:56:00 AM 67.0284 104.8433 304° West  Level Estimated
Tue 03:57:00 AM 67.0966 104.5769 303° West  Level Estimated
Tue 03:58:00 AM 67.1644 104.3091 303° West  Level Estimated
Tue 03:59:00 AM 67.2317 104.0397 303° West  Level Estimated
Tue 04:00:00 AM 67.2986 103.7689 303° West  Level Estimated
Tue 04:01:00 AM 67.3650 103.4965 302° West  Level Estimated
Tue 04:02:00 AM 67.4310 103.2226 302° West  Level Estimated
Tue 04:03:00 AM 67.4965 102.9472 302° West  Level Estimated
Tue 04:04:00 AM 67.5615 102.6703 302° West  Level Estimated
Tue 04:05:00 AM 67.6260 102.3919 301° West  Level Estimated
Tue 04:06:00 AM 67.6901 102.1119 301° West  Level Estimated
Tue 04:07:00 AM 67.7537 101.8304 301° West  Level Estimated
Tue 04:08:00 AM 67.8167 101.5474 301° West  Level Estimated
Tue 04:09:00 AM 67.8793 101.2629 300° West  Level Estimated
Tue 04:10:00 AM 67.9415 100.9768 300° West  Level Estimated
Tue 04:11:00 AM 68.0031 100.6892 300° West  Level Estimated
Tue 04:12:00 AM 68.0642 100.4001 300° West  Level Estimated
Tue 04:13:00 AM 68.1248 100.1094 299° West  Level Estimated
Tue 04:14:00 AM 68.1848 99.8173 299° West  Level Estimated
Tue 04:15:00 AM 68.2444 99.5236 299° West  Level Estimated
Tue 04:16:00 AM 68.3034 99.2283 299° West  Level Estimated
Tue 04:17:00 AM 68.3620 98.9315 298° West  Level Estimated
Tue 04:18:00 AM 68.4200 98.6333 298° West  Level Estimated
Tue 04:19:00 AM 68.4774 98.3335 298° West  Level Estimated
Tue 04:20:00 AM 68.5343 98.0321 297° West  Level Estimated
Tue 04:21:00 AM 68.5907 97.7293 297° West  Level Estimated
Tue 04:22:00 AM 68.6465 97.4249 297° West  Level Estimated
Tue 04:23:00 AM 68.7018 97.1190 297° West  Level Estimated
Tue 04:24:00 AM 68.7565 96.8116 296° West  Level Estimated
Tue 04:25:00 AM 68.8107 96.5027 296° West  Level Estimated
Tue 04:26:00 AM 68.8643 96.1923 296° West  Level Estimated
Tue 04:27:00 AM 68.9173 95.8804 295° West  Level Estimated
Tue 04:28:00 AM 68.9698 95.5670 295° West  Level Estimated
Tue 04:29:00 AM 69.0217 95.2522 295° West  Level Estimated
Tue 04:30:00 AM 69.0730 94.9358 295° West  Level Estimated
Tue 04:31:00 AM 69.1236 94.6184 294° West  Level Estimated
Tue 04:32:00 AM 69.1737 94.2996 294° West  Level Estimated
Tue 04:33:00 AM 69.2231 93.9793 294° West  Level Estimated
Tue 04:34:00 AM 69.2720 93.6575 293° West  Level Estimated
Tue 04:35:00 AM 69.3202 93.3343 293° West  Level Estimated
Tue 04:36:00 AM 69.3679 93.0097 293° West  Level Estimated
Tue 04:37:00 AM 69.4149 92.6836 292° West  Level Estimated
Tue 04:38:00 AM 69.4614 92.3561 292° West  Level Estimated
Tue 04:39:00 AM 69.5072 92.0272 292° West  Level Estimated
Tue 04:40:00 AM 69.5524 91.6969 292° West  Level Estimated
Tue 04:41:00 AM 69.5970 91.3652 291° West  Level Estimated
Tue 04:42:00 AM 69.6409 91.0321 291° West  Level Estimated
Tue 04:43:00 AM 69.6842 90.6977 291° West  Level Estimated
Tue 04:44:00 AM 69.7269 90.3619 290° West  Level Estimated
Tue 04:45:00 AM 69.7689 90.0247 290° West  Level Estimated
Tue 04:46:00 AM 69.8103 89.6863 290° West  Level Estimated
Tue 04:47:00 AM 69.8510 89.3465 289° West  Level Estimated
Tue 04:48:00 AM 69.8911 89.0053 289° West  Level Estimated
Tue 04:49:00 AM 69.9305 88.6629 289° West  Level Estimated
Tue 04:50:00 AM 69.9693 88.3193 288° West  Level Estimated
Tue 04:51:00 AM 70.0074 87.9743 288° West  Level Estimated
Tue 04:52:00 AM 70.0448 87.6281 288° West  Level Estimated
Tue 04:53:00 AM 70.0815 87.2806 287° West  Level Estimated
Tue 04:54:00 AM 70.1176 86.9320 287° West  Level Estimated
Tue 04:55:00 AM 70.1530 86.5821 287° West  Level Estimated
Tue 04:56:00 AM 70.1877 86.2310 286° West  Level Estimated
Tue 04:57:00 AM 70.2217 85.8788 286° West  Level Estimated
Tue 04:58:00 AM 70.2550 85.5254 286° West  Level Estimated
Tue 04:59:00 AM 70.2877 85.1709 285° West  Level Estimated
Tue 05:00:00 AM 70.3196 84.8153 285° West  Level Estimated
Tue 05:01:00 AM 70.3508 84.4586 285° West  Level Estimated
Tue 05:02:00 AM 70.3813 84.1008 284° West  Level Estimated
Tue 05:03:00 AM 70.4111 83.7419 284° West  Level Estimated
Tue 05:03:57 AM 68.2810 77.4050 284° West 490 564 34,000  Level FlightAware ADS-B
Tue 05:04:00 AM 70.4402 83.3820 284° West  Level Estimated
Tue 05:04:32 AM 68.2920 77.2130 279° West 489 563 34,000  Level FlightAware ADS-B
Tue 05:05:12 AM 68.3070 76.9620 279° West 488 562 34,000  Level FlightAware ADS-B
Tue 05:05:42 AM 68.3180 76.7690 279° West 487 560 34,000  Level FlightAware ADS-B
Tue 05:06:27 AM 68.3330 76.4990 279° West 488 562 34,000  Level FlightAware ADS-B
Tue 05:07:12 AM 68.3470 76.2510 279° West 490 564 34,000  Level FlightAware ADS-B
Tue 05:07:52 AM 68.3590 76.0080 278° West 491 565 34,000  Level FlightAware ADS-B
Tue 05:08:32 AM 68.3720 75.7590 278° West 490 564 34,000  Level FlightAware ADS-B
Tue 05:09:12 AM 68.3850 75.5110 278° West 490 564 34,000  Level FlightAware ADS-B
Tue 05:09:52 AM 68.3970 75.2610 278° West 490 564 34,000  Level FlightAware ADS-B
Tue 05:10:37 AM 68.4090 74.9960 277° West 489 563 34,000  Level FlightAware ADS-B
Tue 05:11:22 AM 68.4210 74.7220 277° West 491 565 34,000  Level FlightAware ADS-B
Tue 05:12:07 AM 68.4330 74.4480 277° West 491 565 34,000  Level FlightAware ADS-B
Tue 05:12:42 AM 68.4410 74.2510 276° West 491 565 34,000  Level FlightAware ADS-B
Tue 05:13:22 AM 68.4520 74.0020 277° West 491 565 34,000  Level FlightAware ADS-B
Tue 05:14:07 AM 68.4630 73.7000 276° West 489 563 34,000  Level FlightAware ADS-B
Tue 05:14:47 AM 68.4710 73.4750 276° West 488 562 34,000  Level FlightAware ADS-B
Tue 05:15:32 AM 68.4750 73.2010 272° West 484 557 34,000  Level FlightAware ADS-B
Tue 05:16:12 AM 68.4790 72.9520 273° West 481 554 34,000  Level FlightAware ADS-B
Tue 05:16:57 AM 68.4830 72.6930 273° West 481 554 34,000  Level FlightAware ADS-B
Tue 05:17:37 AM 68.4860 72.4570 272° West 481 554 34,000  Level FlightAware ADS-B
Tue 05:18:22 AM 68.4910 72.1690 273° West 483 556 34,000  Level FlightAware ADS-B
Tue 05:19:02 AM 68.4940 71.9280 272° West 485 558 34,000  Level FlightAware ADS-B
Tue 05:19:42 AM 68.4960 71.6740 271° West 486 559 34,000  Level FlightAware ADS-B
Tue 05:20:22 AM 68.4980 71.4930 272° West 486 559 34,000  Level FlightAware ADS-B
Tue 05:21:12 AM 68.5000 71.1580 271° West 487 560 34,000  Level FlightAware ADS-B
Tue 05:21:52 AM 68.5020 70.9490 272° West 487 560 34,000  Level FlightAware ADS-B
Tue 05:22:32 AM 68.5030 70.6630 271° West 488 562 34,000  Level FlightAware ADS-B
Tue 05:23:07 AM 68.5030 70.4280 270° West 489 563 34,000  Level FlightAware ADS-B
Tue 05:23:52 AM 68.5030 70.1550 270° West 489 563 34,000  Level FlightAware ADS-B
Tue 05:24:42 AM 68.5030 69.8570 270° West 490 564 34,000  Level FlightAware ADS-B
Tue 05:25:17 AM 68.5030 69.6290 270° West 486 559 34,000  Level FlightAware ADS-B
Tue 05:25:57 AM 68.5020 69.3790 269° West 487 560 34,000  Level FlightAware ADS-B
Tue 05:26:47 AM 68.5000 69.0980 269° West 486 559 34,000  Level FlightAware ADS-B
Tue 05:27:27 AM 68.4980 68.8350 269° West 486 559 34,000  Level FlightAware ADS-B
Tue 05:28:22 AM 68.4950 68.5160 269° West 479 551 34,000  Level FlightAware ADS-B
Tue 05:28:57 AM 68.4930 68.3030 269° West 468 539 34,000  Level FlightAware ADS-B
Tue 05:29:47 AM 68.4890 68.0170 268° West 469 540 34,000  Level FlightAware ADS-B
Tue 05:30:22 AM 68.4870 67.8010 269° West 473 544 34,000  Level FlightAware ADS-B
Tue 05:31:12 AM 68.4830 67.5280 268° West 476 548 34,000  Level FlightAware ADS-B
Tue 05:31:57 AM 68.4780 67.2790 267° West 476 548 34,000  Level FlightAware ADS-B
Tue 05:32:37 AM 68.4740 67.0750 267° West 476 548 34,000  Level FlightAware ADS-B
Tue 05:33:17 AM 68.4700 66.8710 267° West 476 548 34,000  Level FlightAware ADS-B
Tue 05:33:57 AM 68.4660 66.6670 267° West 476 548 34,000  Level FlightAware ADS-B
Tue 05:34:37 AM 68.4620 66.4640 267° West 476 548 34,000  Level FlightAware ADS-B
Tue 05:35:17 AM 68.4580 66.2600 267° West 476 548 34,000  Level FlightAware ADS-B
Tue 05:36:07 AM 68.4530 66.0060 267° West 476 548 34,000  Level FlightAware ADS-B
Tue 05:36:47 AM 68.4490 65.8020 267° West 476 548 34,000  Level FlightAware ADS-B
Tue 05:37:17 AM 68.4460 65.6490 267° West 476 548 34,000  Level FlightAware ADS-B
Tue 05:38:07 AM 68.4410 65.3950 267° West 476 548 34,000  Level FlightAware ADS-B
Tue 05:38:47 AM 68.4370 65.1910 267° West 476 548 34,000  Level FlightAware ADS-B
Tue 05:39:27 AM 68.4330 64.9880 267° West 476 548 34,000  Level FlightAware ADS-B
Tue 05:40:07 AM 68.4290 64.7850 267° West 476 548 34,000  Level FlightAware ADS-B
Tue 05:40:47 AM 68.4250 64.5810 267° West 476 548 34,000  Level FlightAware ADS-B
Tue 05:43:00 AM 68.4193 63.8335 269° West  Level Estimated
Tue 05:44:00 AM 68.4156 63.4964 268° West  Level Estimated
Tue 05:45:00 AM 68.4113 63.1595 268° West  Level Estimated
Tue 05:46:00 AM 68.4063 62.8227 268° West  Level Estimated
Tue 05:47:00 AM 68.4006 62.4860 268° West  Level Estimated
Tue 05:48:00 AM 68.3942 62.1496 267° West  Level Estimated
Tue 05:49:00 AM 68.3872 61.8133 267° West  Level Estimated
Tue 05:50:00 AM 68.3795 61.4772 267° West  Level Estimated
Tue 05:51:00 AM 68.3711 61.1414 266° West  Level Estimated
Tue 05:52:00 AM 68.3620 60.8059 266° West  Level Estimated
Tue 05:53:00 AM 68.3522 60.4706 266° West  Level Estimated
Tue 05:54:00 AM 68.3418 60.1356 265° West  Level Estimated
Tue 05:55:00 AM 68.3307 59.8010 265° West  Level Estimated
Tue 05:56:00 AM 68.3190 59.4666 265° West  Level Estimated
Tue 05:57:00 AM 68.3066 59.1327 264° West  Level Estimated
Tue 05:58:00 AM 68.2935 58.7991 264° West  Level Estimated
Tue 05:59:00 AM 68.2797 58.4659 264° West  Level Estimated
Tue 06:00:00 AM 68.2653 58.1330 263° West  Level Estimated
Tue 06:01:00 AM 68.2502 57.8007 263° West  Level Estimated
Tue 06:02:00 AM 68.2345 57.4688 263° West  Level Estimated
Tue 06:03:00 AM 68.2180 57.1373 263° West  Level Estimated
Tue 06:04:00 AM 68.2010 56.8063 262° West  Level Estimated
Tue 06:05:00 AM 68.1833 56.4759 262° West  Level Estimated
Tue 06:06:00 AM 68.1649 56.1459 262° West  Level Estimated
Tue 06:07:00 AM 68.1458 55.8165 261° West  Level Estimated
Tue 06:08:00 AM 68.1261 55.4877 261° West  Level Estimated
Tue 06:09:00 AM 68.1058 55.1594 261° West  Level Estimated
Tue 06:10:00 AM 68.0848 54.8317 260° West  Level Estimated
Tue 06:11:00 AM 68.0631 54.5046 260° West  Level Estimated
Tue 06:12:00 AM 68.0408 54.1781 260° West  Level Estimated
Tue 06:13:00 AM 68.0179 53.8523 259° West  Level Estimated
Tue 06:14:00 AM 67.9943 53.5271 259° West  Level Estimated
Tue 06:15:00 AM 67.9701 53.2026 259° West  Level Estimated
Tue 06:16:00 AM 67.9453 52.8788 259° West  Level Estimated
Tue 06:17:00 AM 67.9198 52.5557 258° West  Level Estimated
Tue 06:18:00 AM 67.8936 52.2333 258° West  Level Estimated
Tue 06:19:00 AM 67.8669 51.9116 258° West  Level Estimated
Tue 06:20:00 AM 67.8395 51.5907 257° West  Level Estimated
Tue 06:21:00 AM 67.8115 51.2706 257° West  Level Estimated
Tue 06:22:00 AM 67.7829 50.9512 257° West  Level Estimated
Tue 06:23:00 AM 67.7536 50.6326 257° West  Level Estimated
Tue 06:24:00 AM 67.7238 50.3148 256° West  Level Estimated
Tue 06:25:00 AM 67.6933 49.9978 256° West  Level Estimated
Tue 06:26:00 AM 67.6622 49.6817 256° West  Level Estimated
Tue 06:27:00 AM 67.6304 49.3664 255° West  Level Estimated
Tue 06:28:00 AM 67.5981 49.0519 255° West  Level Estimated
Tue 06:29:00 AM 67.5652 48.7383 255° West  Level Estimated
Tue 06:30:00 AM 67.5316 48.4256 254° West  Level Estimated
Tue 06:31:00 AM 67.4975 48.1138 254° West  Level Estimated
Tue 06:32:00 AM 67.4628 47.8029 254° West  Level Estimated
Tue 06:33:00 AM 67.4275 47.4929 254° West  Level Estimated
Tue 06:34:00 AM 67.3915 47.1839 253° West  Level Estimated
Tue 06:35:00 AM 67.3550 46.8757 253° West  Level Estimated
Tue 06:36:00 AM 67.3179 46.5686 253° West  Level Estimated
Tue 06:37:00 AM 67.2802 46.2623 252° West  Level Estimated
Tue 06:38:00 AM 67.2420 45.9571 252° West  Level Estimated
Tue 06:39:00 AM 67.2031 45.6528 252° West  Level Estimated
Tue 06:40:00 AM 67.1637 45.3495 252° West  Level Estimated
Tue 06:41:00 AM 67.1237 45.0472 251° West  Level Estimated
Tue 06:42:00 AM 67.0832 44.7459 251° West  Level Estimated
Tue 06:43:00 AM 67.0420 44.4457 251° West  Level Estimated
Tue 06:43:32 AM 66.3130 43.4130 250° West 468 539 34,000  Level FlightAware ADS-B
Tue 06:44:00 AM 67.0004 44.1464 250° West  Level Estimated
Tue 06:44:12 AM 66.2760 43.2070 246° West 467 537 34,000  Level FlightAware ADS-B
Tue 06:44:52 AM 66.2420 43.0190 246° West 465 535 34,000  Level FlightAware ADS-B
Tue 06:45:32 AM 66.2040 42.8080 246° West 463 533 34,000  Level FlightAware ADS-B
Tue 06:46:22 AM 66.1610 42.5740 246° West 463 533 34,000  Level FlightAware ADS-B
Tue 06:47:02 AM 66.1250 42.3760 246° West 464 534 34,000  Level FlightAware ADS-B
Tue 06:47:42 AM 66.0880 42.1810 245° Southwest 466 536 34,000  Level FlightAware ADS-B
Tue 06:48:27 AM 66.0480 41.9700 245° Southwest 468 539 34,000  Level FlightAware ADS-B
Tue 06:49:07 AM 66.0120 41.7760 246° West 467 537 34,000  Level FlightAware ADS-B
Tue 06:49:47 AM 65.9740 41.5830 244° Southwest 465 535 34,000  Level FlightAware ADS-B
Tue 06:50:32 AM 65.9330 41.3690 245° Southwest 467 537 34,000  Level FlightAware ADS-B
Tue 06:51:12 AM 65.8960 41.1800 244° Southwest 468 539 34,000  Level FlightAware ADS-B
Tue 06:51:57 AM 65.8550 40.9770 244° Southwest 467 537 34,000  Level FlightAware ADS-B
Tue 06:52:37 AM 65.8160 40.7790 244° Southwest 467 537 34,000  Level FlightAware ADS-B
Tue 06:53:12 AM 65.7830 40.6150 244° Southwest 466 536 34,000  Level FlightAware ADS-B
Tue 06:54:02 AM 65.7360 40.3840 244° Southwest 466 536 34,000  Level FlightAware ADS-B
Tue 06:54:42 AM 65.6970 40.1970 243° Southwest 467 537 34,000  Level FlightAware ADS-B
Tue 06:55:22 AM 65.6600 40.0240 243° Southwest 466 536 34,000  Level FlightAware ADS-B
Tue 06:56:07 AM 65.6070 39.8050 240° Southwest 467 537 34,000  Level FlightAware ADS-B
Tue 06:56:47 AM 65.5650 39.6360 239° Southwest 467 537 34,000  Level FlightAware ADS-B
Tue 06:57:32 AM 65.5160 39.4260 241° Southwest 466 536 34,000  Level FlightAware ADS-B
Tue 06:58:12 AM 65.4720 39.2430 240° Southwest 466 536 34,000  Level FlightAware ADS-B
Tue 06:58:57 AM 65.4260 39.0550 240° Southwest 462 532 34,000  Level FlightAware ADS-B
Tue 06:59:37 AM 65.3810 38.8710 240° Southwest 461 531 34,000  Level FlightAware ADS-B
Tue 07:00:22 AM 65.3330 38.6760 240° Southwest 464 534 34,000  Level FlightAware ADS-B
Tue 07:00:57 AM 65.2930 38.5200 239° Southwest 465 535 34,000  Level FlightAware ADS-B
Tue 07:01:42 AM 65.2450 38.3270 239° Southwest 465 535 34,000  Level FlightAware ADS-B
Tue 07:02:27 AM 65.1950 38.1320 239° Southwest 465 535 34,000  Level FlightAware ADS-B
Tue 07:03:07 AM 65.1490 37.9530 239° Southwest 463 533 34,000  Level FlightAware ADS-B
Tue 07:03:52 AM 65.0980 37.7560 238° Southwest 462 532 34,000  Level FlightAware ADS-B
Tue 07:04:32 AM 65.0540 37.5830 239° Southwest 464 534 34,000  Level FlightAware ADS-B
Tue 07:05:12 AM 65.0100 37.4140 238° Southwest 464 534 34,000  Level FlightAware ADS-B
Tue 07:05:57 AM 64.9570 37.2160 238° Southwest 465 535 34,000  Level FlightAware ADS-B
Tue 07:06:37 AM 64.9130 37.0510 238° Southwest 465 535 34,000  Level FlightAware ADS-B
Tue 07:07:12 AM 64.8770 36.9150 238° Southwest 464 534 34,000  Level FlightAware ADS-B
Tue 07:08:02 AM 64.8170 36.6930 238° Southwest 463 533 34,000  Level FlightAware ADS-B
Tue 07:08:42 AM 64.7710 36.5220 238° Southwest 461 531 34,000  Level FlightAware ADS-B
Tue 07:09:17 AM 64.7320 36.3780 238° Southwest 461 531 34,000  Level FlightAware ADS-B
Tue 07:10:07 AM 64.6730 36.1660 237° Southwest 461 531 34,000  Level FlightAware ADS-B
Tue 07:10:42 AM 64.6320 36.0200 237° Southwest 461 531 34,000  Level FlightAware ADS-B
Tue 07:11:27 AM 64.5860 35.8590 236° Southwest 461 531 34,000  Level FlightAware ADS-B
Tue 07:12:07 AM 64.5450 35.7190 236° Southwest 461 531 34,000  Level FlightAware ADS-B
Tue 07:12:57 AM 64.4940 35.5440 236° Southwest 461 531 34,000  Level FlightAware ADS-B
Tue 07:13:37 AM 64.4540 35.4050 236° Southwest 461 531 34,000 80 Level FlightAware ADS-B
Tue 07:14:22 AM 64.3740 35.1190 237° Southwest 35,400 82 Climbing FlightAware ADS-B
Tue 07:16:00 AM 64.2848 34.6998 244° Southwest  Level Estimated
Tue 07:17:00 AM 64.2297 34.4445 244° Southwest  Level Estimated
Tue 07:18:00 AM 64.1740 34.1902 243° Southwest  Level Estimated
Tue 07:19:00 AM 64.1180 33.9369 243° Southwest  Level Estimated
Tue 07:20:00 AM 64.0615 33.6846 243° Southwest  Level Estimated
Tue 07:21:00 AM 64.0045 33.4334 243° Southwest  Level Estimated
Tue 07:22:00 AM 63.9472 33.1832 243° Southwest  Level Estimated
Tue 07:23:00 AM 63.8894 32.9340 242° Southwest  Level Estimated
Tue 07:24:00 AM 63.8312 32.6858 242° Southwest  Level Estimated
Tue 07:25:00 AM 63.7725 32.4387 242° Southwest  Level Estimated
Tue 07:26:00 AM 63.7134 32.1926 242° Southwest  Level Estimated
Tue 07:27:00 AM 63.6539 31.9475 241° Southwest  Level Estimated
Tue 07:28:00 AM 63.5940 31.7035 241° Southwest  Level Estimated
Tue 07:29:00 AM 63.5337 31.4605 241° Southwest  Level Estimated
Tue 07:30:00 AM 63.4730 31.2185 241° Southwest  Level Estimated
Tue 07:31:00 AM 63.4119 30.9776 241° Southwest  Level Estimated
Tue 07:32:00 AM 63.3503 30.7373 240° Southwest  Level Estimated
Tue 07:33:00 AM 63.2882 30.4981 240° Southwest  Level Estimated
Tue 07:34:00 AM 63.2258 30.2599 240° Southwest  Level Estimated
Tue 07:35:00 AM 63.1630 30.0227 240° Southwest  Level Estimated
Tue 07:36:00 AM 63.0998 29.7866 239° Southwest  Level Estimated
Tue 07:37:00 AM 63.0362 29.5515 239° Southwest  Level Estimated
Tue 07:37:57 AM 62.7430 29.4680 239° Southwest 463 533 36,000  Level FlightAware ADS-B
Tue 07:38:32 AM 62.7090 29.3110 245° Southwest 463 533 36,000  Level FlightAware ADS-B
Tue 07:39:22 AM 62.6650 29.1090 245° Southwest 460 529 36,000  Level FlightAware ADS-B
Tue 07:40:02 AM 62.6280 28.9440 244° Southwest 461 531 36,000  Level FlightAware ADS-B
Tue 07:40:42 AM 62.5920 28.7790 245° Southwest 462 532 36,000  Level FlightAware ADS-B
Tue 07:41:27 AM 62.5470 28.5790 244° Southwest 462 532 36,000  Level FlightAware ADS-B
Tue 07:42:02 AM 62.5210 28.4680 243° Southwest 463 533 36,000  Level FlightAware ADS-B
Tue 07:42:52 AM 62.4720 28.2570 243° Southwest 463 533 36,000  Level FlightAware ADS-B
Tue 07:43:32 AM 62.4390 28.1160 243° Southwest 463 533 36,000  Level FlightAware ADS-B
Tue 07:44:12 AM 62.3910 27.9020 244° Southwest 461 531 36,000  Level FlightAware ADS-B
Tue 07:44:52 AM 62.3570 27.7540 244° Southwest 461 531 36,000  Level FlightAware ADS-B
Tue 07:45:37 AM 62.3180 27.5880 243° Southwest 461 531 36,000  Level FlightAware ADS-B
Tue 07:46:22 AM 62.2710 27.3900 243° Southwest 462 532 36,000  Level FlightAware ADS-B
Tue 07:46:52 AM 62.2430 27.2710 243° Southwest 463 533 36,000  Level FlightAware ADS-B
Tue 07:47:37 AM 62.1960 27.0760 243° Southwest 464 534 36,000  Level FlightAware ADS-B
Tue 07:48:27 AM 62.1450 26.8680 242° Southwest 465 535 36,000  Level FlightAware ADS-B
Tue 07:49:02 AM 62.1120 26.7340 242° Southwest 464 534 36,000  Level FlightAware ADS-B
Tue 07:49:52 AM 62.0640 26.5380 242° Southwest 463 533 36,000  Level FlightAware ADS-B
Tue 07:50:32 AM 62.0230 26.3720 242° Southwest 463 533 36,000  Level FlightAware ADS-B
Tue 07:51:12 AM 61.9750 26.1790 242° Southwest 460 529 36,000  Level FlightAware ADS-B
Tue 07:51:57 AM 61.9350 26.0220 242° Southwest 463 533 36,000  Level FlightAware ADS-B
Tue 07:52:27 AM 61.8990 25.8810 242° Southwest 458 527 36,000  Level FlightAware ADS-B
Tue 07:53:22 AM 61.8500 25.6900 242° Southwest 463 533 36,000  Level FlightAware ADS-B
Tue 07:54:37 AM 61.7750 25.4020 241° Southwest 462 532 36,000  Level FlightAware ADS-B
Tue 07:55:52 AM 61.6900 25.0750 241° Southwest 464 534 36,000  Level FlightAware ADS-B
Tue 07:58:00 AM 61.5378 24.6197 235° Southwest  Level Estimated
Tue 07:58:27 AM 61.5260 24.4690 235° Southwest 460 529 36,000  Level FlightAware ADS-B
Tue 07:59:12 AM 61.4750 24.2960 238° Southwest 458 527 36,000  Level FlightAware ADS-B
Tue 07:59:52 AM 61.4290 24.1490 237° Southwest 462 532 36,000  Level FlightAware ADS-B
Tue 08:00:32 AM 61.3790 23.9930 236° Southwest 462 532 36,000  Level FlightAware ADS-B
Tue 08:01:12 AM 61.3320 23.8470 236° Southwest 461 531 36,000  Level FlightAware ADS-B
Tue 08:01:57 AM 61.2790 23.6870 235° Southwest 461 531 36,000  Level FlightAware ADS-B
Tue 08:02:42 AM 61.2240 23.5150 236° Southwest 465 535 36,000  Level FlightAware ADS-B
Tue 08:03:22 AM 61.1790 23.3780 236° Southwest 464 534 36,000  Level FlightAware ADS-B
Tue 08:04:02 AM 61.1300 23.2280 236° Southwest 464 534 36,000  Level FlightAware ADS-B
Tue 08:04:47 AM 61.0750 23.0620 236° Southwest 464 534 36,000  Level FlightAware ADS-B
Tue 08:05:22 AM 61.0350 22.9430 235° Southwest 462 532 36,000  Level FlightAware ADS-B
Tue 08:06:07 AM 60.9770 22.7720 235° Southwest 462 532 36,000  Level FlightAware ADS-B
Tue 08:06:52 AM 60.9250 22.6160 236° Southwest 458 527 36,000  Level FlightAware ADS-B
Tue 08:07:32 AM 60.8760 22.4710 235° Southwest 456 525 36,000  Level FlightAware ADS-B
Tue 08:08:17 AM 60.8170 22.2990 235° Southwest 460 529 36,000  Level FlightAware ADS-B
Tue 08:08:57 AM 60.7670 22.1560 234° Southwest 460 529 36,000  Level FlightAware ADS-B
Tue 08:09:37 AM 60.7190 22.0150 235° Southwest 461 531 36,000  Level FlightAware ADS-B
Tue 08:10:22 AM 60.6640 21.8600 234° Southwest 461 531 36,000  Level FlightAware ADS-B
Tue 08:11:02 AM 60.6140 21.7180 234° Southwest 461 531 36,000  Level FlightAware ADS-B
Tue 08:11:47 AM 60.5580 21.5570 235° Southwest 460 529 36,000  Level FlightAware ADS-B
Tue 08:12:27 AM 60.5080 21.4170 234° Southwest 453 521 36,000  Level FlightAware ADS-B
Tue 08:13:07 AM 60.4590 21.2800 234° Southwest 452 520 36,000  Level FlightAware ADS-B
Tue 08:13:52 AM 60.4060 21.1340 234° Southwest 452 520 36,000  Level FlightAware ADS-B
Tue 08:14:32 AM 60.3570 20.9980 234° Southwest 452 520 36,000  Level FlightAware ADS-B
Tue 08:15:17 AM 60.2990 20.8410 233° Southwest 452 520 36,000  Level FlightAware ADS-B
Tue 08:15:57 AM 60.2500 20.7060 234° Southwest 452 520 36,000  Level FlightAware ADS-B
Tue 08:16:37 AM 60.2000 20.5720 233° Southwest 453 521 36,000  Level FlightAware ADS-B
Tue 08:17:22 AM 60.1440 20.4210 233° Southwest 452 520 36,000  Level FlightAware ADS-B
Tue 08:18:02 AM 60.0950 20.2880 234° Southwest 450 518 36,000  Level FlightAware ADS-B
Tue 08:18:47 AM 60.0370 20.1360 233° Southwest 449 517 36,000  Level FlightAware ADS-B
Tue 08:19:27 AM 59.9880 20.0040 233° Southwest 449 517 36,000  Level FlightAware ADS-B
Tue 08:20:12 AM 59.9320 19.8580 233° Southwest 448 516 36,000  Level FlightAware ADS-B
Tue 08:20:52 AM 59.8820 19.7270 233° Southwest 450 518 36,000  Level FlightAware ADS-B
Tue 08:21:32 AM 59.8330 19.6000 233° Southwest 446 513 36,000  Level FlightAware ADS-B
Tue 08:22:17 AM 59.7750 19.4490 233° Southwest 445 512 36,000  Level FlightAware ADS-B
Tue 08:22:57 AM 59.7240 19.3190 232° Southwest 444 511 36,000  Level FlightAware ADS-B
Tue 08:23:42 AM 59.6680 19.1750 232° Southwest 443 510 36,000  Level FlightAware ADS-B
Tue 08:24:22 AM 59.6200 19.0530 232° Southwest 440 506 36,000  Level FlightAware ADS-B
Tue 08:25:02 AM 59.5700 18.9280 232° Southwest 438 504 36,000  Level FlightAware ADS-B
Tue 08:25:47 AM 59.5120 18.7820 232° Southwest 442 509 36,000  Level FlightAware ADS-B
Tue 08:26:27 AM 59.4620 18.6560 232° Southwest 439 505 36,000  Level FlightAware ADS-B
Tue 08:27:07 AM 59.4110 18.5310 231° Southwest 441 507 36,000  Level FlightAware ADS-B
Tue 08:27:52 AM 59.3560 18.3950 232° Southwest 439 505 36,000  Level FlightAware ADS-B
Tue 08:28:32 AM 59.3060 18.2710 232° Southwest 439 505 36,000  Level FlightAware ADS-B
Tue 08:29:12 AM 59.2550 18.1460 231° Southwest 437 503 36,000  Level FlightAware ADS-B
Tue 08:29:57 AM 59.1980 18.0080 231° Southwest 436 502 36,000  Level FlightAware ADS-B
Tue 08:30:37 AM 59.1470 17.8850 231° Southwest 440 506 36,000  Level FlightAware ADS-B
Tue 08:31:22 AM 59.0900 17.7480 231° Southwest 441 507 36,000  Level FlightAware ADS-B
Tue 08:32:02 AM 59.0380 17.6240 231° Southwest 440 506 36,000  Level FlightAware ADS-B
Tue 08:32:47 AM 58.9800 17.4870 231° Southwest 440 506 36,000  Level FlightAware ADS-B
Tue 08:33:27 AM 58.9280 17.3640 231° Southwest 441 507 36,000  Level FlightAware ADS-B
Tue 08:34:07 AM 58.8770 17.2430 231° Southwest 441 507 36,000  Level FlightAware ADS-B
Tue 08:34:52 AM 58.8190 17.1090 230° Southwest 443 510 36,000  Level FlightAware ADS-B
Tue 08:35:32 AM 58.7670 16.9860 231° Southwest 441 507 36,000  Level FlightAware ADS-B
Tue 08:36:17 AM 58.7070 16.8490 230° Southwest 440 506 36,000  Level FlightAware ADS-B
Tue 08:36:57 AM 58.6560 16.7310 230° Southwest 440 506 36,000  Level FlightAware ADS-B
Tue 08:37:37 AM 58.6030 16.6100 230° Southwest 440 506 36,000  Level FlightAware ADS-B
Tue 08:38:22 AM 58.5460 16.4790 230° Southwest 436 502 36,000  Level FlightAware ADS-B
Tue 08:39:02 AM 58.4930 16.3600 230° Southwest 435 501 36,000  Level FlightAware ADS-B
Tue 08:39:47 AM 58.4340 16.2270 230° Southwest 434 499 36,000  Level FlightAware ADS-B
Tue 08:40:27 AM 58.3830 16.1120 230° Southwest 433 498 36,000  Level FlightAware ADS-B
Tue 08:41:12 AM 58.3250 15.9830 229° Southwest 432 497 36,000  Level FlightAware ADS-B
Tue 08:41:52 AM 58.2730 15.8690 229° Southwest 431 496 36,000  Level FlightAware ADS-B
Tue 08:42:37 AM 58.2130 15.7370 229° Southwest 430 495 36,000  Level FlightAware ADS-B
Tue 08:43:17 AM 58.1620 15.6240 229° Southwest 430 495 36,000  Level FlightAware ADS-B
Tue 08:43:57 AM 58.1110 15.5130 229° Southwest 430 495 36,000  Level FlightAware ADS-B
Tue 08:44:42 AM 58.0520 15.3860 229° Southwest 430 495 36,000  Level FlightAware ADS-B
Tue 08:45:22 AM 58.0000 15.2740 229° Southwest 429 494 36,000  Level FlightAware ADS-B
Tue 08:46:07 AM 57.9400 15.1440 229° Southwest 430 495 36,000  Level FlightAware ADS-B
Tue 08:46:47 AM 57.8880 15.0330 229° Southwest 425 489 36,000  Level FlightAware ADS-B
Tue 08:47:27 AM 57.8370 14.9240 229° Southwest 423 487 36,000  Level FlightAware ADS-B
Tue 08:48:07 AM 57.7860 14.8170 228° Southwest 417 480 36,000  Level FlightAware ADS-B
Tue 08:48:52 AM 57.7290 14.6960 229° Southwest 415 478 36,000  Level FlightAware ADS-B
Tue 08:49:32 AM 57.6770 14.5880 228° Southwest 419 482 36,000  Level FlightAware ADS-B
Tue 08:50:17 AM 57.6180 14.4630 229° Southwest 422 486 36,000  Level FlightAware ADS-B
Tue 08:50:57 AM 57.5650 14.3550 228° Southwest 420 483 36,000  Level FlightAware ADS-B
Tue 08:51:37 AM 57.5160 14.2520 228° Southwest 421 484 36,000  Level FlightAware ADS-B
Tue 08:52:22 AM 57.4580 14.1320 228° Southwest 420 483 36,000  Level FlightAware ADS-B
Tue 08:53:07 AM 57.4010 14.0150 228° Southwest 421 484 36,000  Level FlightAware ADS-B
Tue 08:53:47 AM 57.3510 13.9140 227° Southwest 423 487 36,000  Level FlightAware ADS-B
Tue 08:54:27 AM 57.2950 13.8000 228° Southwest 422 486 36,000  Level FlightAware ADS-B
Tue 08:55:12 AM 57.2370 13.6850 227° Southwest 423 487 36,000  Level FlightAware ADS-B
Tue 08:55:47 AM 57.1920 13.5930 228° Southwest 426 490 36,000  Level FlightAware ADS-B
Tue 08:56:37 AM 57.1210 13.4510 227° Southwest 430 495 36,000  Level FlightAware ADS-B
Tue 08:57:17 AM 57.0680 13.3460 227° Southwest 429 494 36,000  Level FlightAware ADS-B
Tue 08:57:57 AM 57.0170 13.2450 227° Southwest 427 491 36,000  Level FlightAware ADS-B
Tue 08:58:42 AM 56.9540 13.1220 227° Southwest 427 491 36,000  Level FlightAware ADS-B
Tue 08:59:22 AM 56.9000 13.0140 228° Southwest 428 493 36,000  Level FlightAware ADS-B
Tue 09:00:07 AM 56.8400 12.8980 227° Southwest 431 496 36,000  Level FlightAware ADS-B
Tue 09:00:47 AM 56.7850 12.7910 227° Southwest 431 496 36,000  Level FlightAware ADS-B
Tue 09:01:27 AM 56.7310 12.6870 227° Southwest 431 496 36,000  Level FlightAware ADS-B
Tue 09:02:07 AM 56.6770 12.5830 227° Southwest 430 495 36,000  Level FlightAware ADS-B
Tue 09:02:52 AM 56.6130 12.4610 226° Southwest 428 493 36,000  Level FlightAware ADS-B
Tue 09:03:32 AM 56.5590 12.3580 226° Southwest 427 491 36,000  Level FlightAware ADS-B
Tue 09:04:17 AM 56.4990 12.2460 226° Southwest 426 490 36,000  Level FlightAware ADS-B
Tue 09:04:57 AM 56.4440 12.1450 225° Southwest 422 486 36,000  Level FlightAware ADS-B
Tue 09:05:42 AM 56.3810 12.0300 225° Southwest 422 486 36,000  Level FlightAware ADS-B
Tue 09:06:22 AM 56.3270 11.9300 226° Southwest 421 484 36,000  Level FlightAware ADS-B
Tue 09:07:07 AM 56.2640 11.8150 225° Southwest 420 483 36,000  Level FlightAware ADS-B
Tue 09:07:47 AM 56.2100 11.7190 225° Southwest 420 483 36,000  Level FlightAware ADS-B
Tue 09:08:27 AM 56.1540 11.6180 225° Southwest 418 481 36,000  Level FlightAware ADS-B
Tue 09:09:12 AM 56.0940 11.5090 225° Southwest 416 479 36,000  Level FlightAware ADS-B
Tue 09:09:52 AM 56.0390 11.4120 225° Southwest 417 480 36,000  Level FlightAware ADS-B
Tue 09:10:37 AM 55.9800 11.3060 225° Southwest 418 481 36,000  Level FlightAware ADS-B
Tue 09:11:17 AM 55.9280 11.2140 225° Southwest 417 480 36,000  Level FlightAware ADS-B
Tue 09:11:57 AM 55.8690 11.1110 224° Southwest 417 480 36,000  Level FlightAware ADS-B
Tue 09:12:42 AM 55.8090 11.0060 225° Southwest 415 478 36,000  Level FlightAware ADS-B
Tue 09:13:22 AM 55.7540 10.9090 225° Southwest 415 478 36,000  Level FlightAware ADS-B
Tue 09:14:07 AM 55.6940 10.8040 225° Southwest 412 474 36,000  Level FlightAware ADS-B
Tue 09:14:47 AM 55.6400 10.7110 224° Southwest 410 472 36,000  Level FlightAware ADS-B
Tue 09:15:27 AM 55.5840 10.6140 224° Southwest 409 471 36,000  Level FlightAware ADS-B
Tue 09:16:07 AM 55.5310 10.5230 224° Southwest 408 470 36,000  Level FlightAware ADS-B
Tue 09:16:52 AM 55.4740 10.4270 224° Southwest 408 470 36,000  Level FlightAware ADS-B
Tue 09:17:32 AM 55.4180 10.3300 225° Southwest 405 466 36,000  Level FlightAware ADS-B
Tue 09:18:12 AM 55.3640 10.2400 223° Southwest 402 463 36,000  Level FlightAware ADS-B
Tue 09:18:57 AM 55.3050 10.1390 224° Southwest 400 460 36,000  Level FlightAware ADS-B
Tue 09:19:37 AM 55.2520 10.0490 224° Southwest 398 458 36,000  Level FlightAware ADS-B
Tue 09:20:22 AM 55.1950 9.9550 223° Southwest 399 459 36,000  Level FlightAware ADS-B
Tue 09:21:02 AM 55.1390 9.8610 224° Southwest 401 461 36,000  Level FlightAware ADS-B
Tue 09:21:47 AM 55.0780 9.7590 224° Southwest 399 459 36,000  Level FlightAware ADS-B
Tue 09:22:27 AM 55.0250 9.6720 223° Southwest 401 461 36,000  Level FlightAware ADS-B
Tue 09:23:07 AM 54.9750 9.5900 223° Southwest 401 461 36,000  Level FlightAware ADS-B
Tue 09:23:52 AM 54.9120 9.4870 223° Southwest 402 463 36,000  Level FlightAware ADS-B
Tue 09:24:32 AM 54.8580 9.3980 224° Southwest 403 464 36,000  Level FlightAware ADS-B
Tue 09:25:12 AM 54.8010 9.3060 223° Southwest 403 464 36,000  Level FlightAware ADS-B
Tue 09:25:57 AM 54.7410 9.2070 224° Southwest 403 464 36,000  Level FlightAware ADS-B
Tue 09:26:37 AM 54.6880 9.1230 223° Southwest 401 461 36,000  Level FlightAware ADS-B
Tue 09:27:22 AM 54.6250 9.0210 223° Southwest 403 464 36,000  Level FlightAware ADS-B
Tue 09:28:02 AM 54.5700 8.9320 223° Southwest 404 465 36,000  Level FlightAware ADS-B
Tue 09:28:47 AM 54.5050 8.8290 223° Southwest 403 464 36,000  Level FlightAware ADS-B
Tue 09:29:27 AM 54.4520 8.7450 223° Southwest 404 465 36,000  Level FlightAware ADS-B
Tue 09:30:07 AM 54.3960 8.6560 223° Southwest 404 465 36,000  Level FlightAware ADS-B
Tue 09:30:52 AM 54.3360 8.5610 223° Southwest 406 467 36,000  Level FlightAware ADS-B
Tue 09:31:32 AM 54.2800 8.4730 223° Southwest 406 467 36,000  Level FlightAware ADS-B
Tue 09:32:17 AM 54.2150 8.3730 222° Southwest 409 471 36,000  Level FlightAware ADS-B
Tue 09:32:57 AM 54.1590 8.2850 223° Southwest 408 470 36,000  Level FlightAware ADS-B
Tue 09:33:37 AM 54.1050 8.2010 222° Southwest 409 471 36,000  Level FlightAware ADS-B
Tue 09:34:22 AM 54.0430 8.1050 222° Southwest 409 471 36,000  Level FlightAware ADS-B
Tue 09:35:07 AM 53.9780 8.0050 222° Southwest 409 471 36,000  Level FlightAware ADS-B
Tue 09:35:47 AM 53.9210 7.9180 222° Southwest 410 472 36,000  Level FlightAware ADS-B
Tue 09:36:27 AM 53.8650 7.8330 222° Southwest 410 472 36,000  Level FlightAware ADS-B
Tue 09:37:12 AM 53.8030 7.7380 222° Southwest 412 474 36,000  Level FlightAware ADS-B
Tue 09:37:52 AM 53.7460 7.6520 222° Southwest 411 473 36,000  Level FlightAware ADS-B
Tue 09:38:37 AM 53.6850 7.5590 222° Southwest 410 472 36,000  Level FlightAware ADS-B
Tue 09:39:17 AM 53.6250 7.4710 221° Southwest 412 474 36,000  Level FlightAware ADS-B
Tue 09:39:57 AM 53.5690 7.3860 222° Southwest 412 474 36,000  Level FlightAware ADS-B
Tue 09:40:42 AM 53.5060 7.2920 222° Southwest 412 474 36,000  Level FlightAware ADS-B
Tue 09:41:22 AM 53.4510 7.2100 222° Southwest 413 475 36,000  Level FlightAware ADS-B
Tue 09:41:57 AM 53.4000 7.1360 221° Southwest 415 478 36,000  Level FlightAware ADS-B
Tue 09:42:47 AM 53.3290 7.0300 222° Southwest 415 478 36,000 -1,324 Level FlightAware ADS-B
Tue 09:43:05 AM 53.2968 6.9839 222° Southwest 1 1 34,500 -2,667 Descending FlightAware UK
Tue 09:43:23 AM 53.2709 6.9458 221° Southwest 1 1 34,400 4,091 Descending FlightAware UK
Tue 09:43:27 AM 53.2710 6.9450 221° Southwest 416 479 36,000  Climbing FlightAware ADS-B
Tue 09:43:47 AM 53.2367 6.8949 221° Southwest 1 1 34,400 -2,526 Descending FlightAware UK
Tue 09:44:05 AM 53.2104 6.8570 221° Southwest 1 1 34,400 4,800 Level FlightAware UK
Tue 09:44:07 AM 53.2120 6.8590 221° Southwest 416 479 36,000  Climbing FlightAware ADS-B
Tue 09:44:23 AM 53.1844 6.8189 221° Southwest 1 1 34,400 -2,824 Descending FlightAware UK
Tue 09:44:41 AM 53.1587 6.7809 222° Southwest 1 1 34,400 3,310 Level FlightAware UK
Tue 09:44:52 AM 53.1490 6.7670 222° Southwest 412 474 36,000  Climbing FlightAware ADS-B
Tue 09:45:11 AM 53.1146 6.7179 222° Southwest 1 1 34,400 -2,595 Descending FlightAware UK
Tue 09:45:29 AM 53.0894 6.6797 222° Southwest 1 1 34,400 4,571 Level FlightAware UK
Tue 09:45:32 AM 53.0910 6.6840 222° Southwest 419 482 36,000  Climbing FlightAware ADS-B
Tue 09:45:47 AM 53.0631 6.6418 222° Southwest 1 1 34,400 -2,909 Descending FlightAware UK
Tue 09:46:05 AM 53.0368 6.6040 221° Southwest 1 1 34,400 3,840 Level FlightAware UK
Tue 09:46:12 AM 53.0310 6.5960 221° Southwest 420 483 36,000  Climbing FlightAware ADS-B
Tue 09:46:29 AM 53.0008 6.5536 221° Southwest 1 1 34,400 -2,743 Descending FlightAware UK
Tue 09:46:47 AM 52.9741 6.5155 221° Southwest 1 1 34,400 3,429 Level FlightAware UK
Tue 09:46:57 AM 52.9620 6.4970 221° Southwest 421 484 36,000  Climbing FlightAware ADS-B
Tue 09:47:17 AM 52.9306 6.4517 221° Southwest 1 1 34,400 -2,526 Descending FlightAware UK
Tue 09:47:35 AM 52.9042 6.4138 221° Southwest 1 1 34,400 4,800 Level FlightAware UK
Tue 09:47:37 AM 52.9070 6.4180 221° Southwest 421 484 36,000 2,043 Climbing FlightAware ADS-B
Tue 09:48:22 AM 52.8430 6.3260 221° Southwest 421 484 36,000  Level FlightAware ADS-B
Tue 09:49:02 AM 52.7810 6.2390 220° Southwest 422 486 36,000  Level FlightAware ADS-B
Tue 09:49:47 AM 52.7110 6.1390 221° Southwest 424 488 36,000  Level FlightAware ADS-B
Tue 09:50:32 AM 52.6480 6.0510 220° Southwest 423 487 36,000  Level FlightAware ADS-B
Tue 09:51:12 AM 52.5830 5.9770 215° Southwest 423 487 36,000  Level FlightAware ADS-B
Tue 09:51:52 AM 52.5150 5.9060 212° Southwest 425 489 36,000  Level FlightAware ADS-B
Tue 09:52:37 AM 52.4390 5.8280 212° Southwest 426 490 36,000  Level FlightAware ADS-B
Tue 09:53:17 AM 52.3710 5.7590 212° Southwest 426 490 36,000  Level FlightAware ADS-B
Tue 09:54:02 AM 52.2980 5.6850 212° Southwest 425 489 36,000 -1,231 Level FlightAware ADS-B
Tue 09:54:35 AM 52.2343 5.6235 212° Southwest 488 562 34,400  Descending FlightAware UK
Tue 09:54:37 AM 52.2420 5.6280 212° Southwest 426 490 36,000 250 Climbing FlightAware ADS-B
Tue 09:54:59 AM 52.1933 5.5823 212° Southwest 486 559 34,500  Descending FlightAware UK
Tue 09:55:17 AM 52.1730 5.5590 212° Southwest 425 489 36,000 -143 Climbing FlightAware ADS-B
Tue 09:55:41 AM 52.1250 5.5123 212° Southwest 486 559 34,400  Descending FlightAware UK
Tue 09:56:07 AM 52.0870 5.4730 212° Southwest 426 490 36,000 143 Climbing FlightAware ADS-B
Tue 09:56:23 AM 52.0558 5.4426 212° Southwest 486 559 34,500  Descending FlightAware UK
Tue 09:56:47 AM 52.0220 5.4080 212° Southwest 427 491 36,000  Climbing FlightAware ADS-B
Tue 09:57:05 AM 51.9867 5.3733 212° Southwest 486 559 34,500  Descending FlightAware UK
Tue 09:57:32 AM 51.9480 5.3340 212° Southwest 428 493 36,000  Climbing FlightAware ADS-B
Tue 09:57:47 AM 51.9156 5.3027 212° Southwest 488 562 34,500  Descending FlightAware UK
Tue 09:58:12 AM 51.8790 5.2660 212° Southwest 427 491 36,000 1,385 Climbing FlightAware ADS-B
Tue 09:58:52 AM 51.8130 5.2010 211° Southwest 427 491 36,000 -1,385 Level FlightAware ADS-B
Tue 09:59:17 AM 51.7654 5.1541 211° Southwest 484 557 34,500  Descending FlightAware UK
Tue 09:59:32 AM 51.7450 5.1340 211° Southwest 429 494 36,000 -200 Climbing FlightAware ADS-B
Tue 09:59:47 AM 51.7145 5.1042 211° Southwest 486 559 34,400 -2,462 Descending FlightAware UK
Tue 10:00:11 AM 51.6739 5.0642 211° Southwest 484 557 34,400 3,200 Level FlightAware UK
Tue 10:00:17 AM 51.6680 5.0570 211° Southwest 430 495 36,000 2,087 Climbing FlightAware ADS-B
Tue 10:00:57 AM 51.6000 4.9910 211° Southwest 431 496 36,000 -1,231 Level FlightAware ADS-B
Tue 10:01:35 AM 51.5310 4.9247 211° Southwest 484 557 34,400  Descending FlightAware UK
Tue 10:01:42 AM 51.5230 4.9160 211° Southwest 431 496 36,000  Climbing FlightAware ADS-B
Tue 10:01:59 AM 51.4904 4.8853 211° Southwest 484 557 34,400  Descending FlightAware UK
Tue 10:02:22 AM 51.4570 4.8520 211° Southwest 433 498 36,000 100 Climbing FlightAware ADS-B
Tue 10:02:59 AM 51.3853 4.7840 211° Southwest 484 557 34,500  Descending FlightAware UK
Tue 10:03:07 AM 51.3800 4.7780 211° Southwest 435 501 36,000 -250 Climbing FlightAware ADS-B
Tue 10:03:23 AM 51.3443 4.7442 211° Southwest 486 559 34,400  Descending FlightAware UK
Tue 10:03:47 AM 51.3120 4.7130 211° Southwest 436 502 36,000 125 Climbing FlightAware ADS-B
Tue 10:04:11 AM 51.2619 4.6648 211° Southwest 482 555 34,500  Descending FlightAware UK
Tue 10:04:27 AM 51.2360 4.6400 211° Southwest 437 503 36,000  Climbing FlightAware ADS-B
Tue 10:04:47 AM 51.1989 4.6042 211° Southwest 486 559 34,500 -2,368 Descending FlightAware UK
Tue 10:05:05 AM 51.1676 4.5741 211° Southwest 486 559 34,500 3,600 Level FlightAware UK
Tue 10:05:12 AM 51.1590 4.5660 211° Southwest 438 504 36,000  Climbing FlightAware ADS-B
Tue 10:05:29 AM 51.1271 4.5358 211° Southwest 486 559 34,500  Descending FlightAware UK
Tue 10:05:52 AM 51.0930 4.5030 211° Southwest 438 504 36,000  Climbing FlightAware ADS-B
Tue 10:06:29 AM 51.0238 4.4381 211° Southwest 486 559 34,500  Descending FlightAware UK
Tue 10:06:37 AM 51.0110 4.4250 211° Southwest 439 505 36,000  Climbing FlightAware ADS-B
Tue 10:06:59 AM 50.9718 4.3887 211° Southwest 486 559 34,500  Descending FlightAware UK
Tue 10:07:17 AM 50.9450 4.3630 211° Southwest 439 505 36,000  Climbing FlightAware ADS-B
Tue 10:07:41 AM 50.8983 4.3193 211° Southwest 486 559 34,500  Descending FlightAware UK
Tue 10:07:57 AM 50.8770 4.2990 211° Southwest 439 505 36,000 1,475 Climbing FlightAware ADS-B
Tue 10:08:42 AM 50.7930 4.2200 211° Southwest 439 505 36,000 -1,548 Level FlightAware ADS-B
Tue 10:08:59 AM 50.7620 4.1916 211° Southwest 484 557 34,400 -3,086 Descending FlightAware UK
Tue 10:09:17 AM 50.7305 4.1621 211° Southwest 478 550 34,200 3,652 Descending FlightAware UK
Tue 10:09:22 AM 50.7260 4.1570 211° Southwest 430 495 35,800 -500 Climbing FlightAware ADS-B
Tue 10:09:53 AM 50.6681 4.1036 211° Southwest 470 541 33,900 -667 Descending FlightAware UK
Tue 10:10:07 AM 50.6540 4.0910 211° Southwest 422 486 35,300 -1,333 Climbing FlightAware ADS-B
Tue 10:10:29 AM 50.6047 4.0669 211° Southwest 468 539 33,100 -1,886 Descending FlightAware UK
Tue 10:10:42 AM 50.5830 4.0610 211° Southwest 432 497 34,200 -2,750 Climbing FlightAware ADS-B
Tue 10:11:17 AM 50.5091 4.0694 211° Southwest 1 1 30,900 -2,040 Descending FlightAware UK
Tue 10:11:32 AM 50.4840 4.0710 211° Southwest 422 486 32,500 -1,375 Climbing FlightAware ADS-B
Tue 10:12:05 AM 50.4140 4.0766 211° Southwest 1 1 29,800 -1,950 Descending FlightAware UK
Tue 10:12:12 AM 50.4090 4.0800 211° Southwest 399 459 31,200 -2,600 Climbing FlightAware ADS-B
Tue 10:12:35 AM 50.3590 4.0811 211° Southwest 1 1 28,500 -2,550 Descending FlightAware UK
Tue 10:12:52 AM 50.3390 4.0870 211° Southwest 390 449 29,500 -2,667 Climbing FlightAware ADS-B
Tue 10:13:11 AM 50.2960 4.0906 211° Southwest 1 1 26,900 -5,027 Descending FlightAware UK
Tue 10:13:29 AM 50.2618 4.0902 180° South 1 1 26,400 1,846 Descending FlightAware UK
Tue 10:13:37 AM 50.2530 4.0960 180° South 386 444 27,700 -1,750 Climbing FlightAware ADS-B
Tue 10:13:53 AM 50.2211 4.1000 180° South 1 1 25,700 -1,800 Descending FlightAware UK
Tue 10:14:17 AM 50.1900 4.1030 180° South 377 434 26,500 -1,444 Climbing FlightAware ADS-B
Tue 10:14:47 AM 50.1272 4.1073 180° South 1 1 24,400 -800 Descending FlightAware UK
Tue 10:15:02 AM 50.1080 4.1050 180° South 372 428 25,900 -1,000 Climbing FlightAware ADS-B
Tue 10:15:17 AM 50.0760 4.1046 180° South 1 1 23,900 -4,909 Descending FlightAware UK
Tue 10:15:35 AM 50.0449 4.0996 186° South 1 1 23,200 1,680 Descending FlightAware UK
Tue 10:15:42 AM 50.0390 4.1000 186° South 367 422 24,600 -2,000 Climbing FlightAware ADS-B
Tue 10:16:11 AM 49.9843 4.0933 186° South 1 1 22,000 -1,950 Descending FlightAware UK
Tue 10:16:22 AM 49.9730 4.0870 186° South 361 415 23,300 -1,800 Climbing FlightAware ADS-B
Tue 10:16:41 AM 49.9357 4.0731 186° South 1 1 21,100 -1,867 Descending FlightAware UK
Tue 10:17:07 AM 49.9050 4.0350 186° South 351 404 21,900 -727 Climbing FlightAware ADS-B
Tue 10:17:47 AM 49.8490 3.9840 210° Southwest 356 410 20,300 -1,976 Descending FlightAware ADS-B
Tue 10:18:32 AM 49.7870 3.9290 210° Southwest 348 400 19,100 -1,765 Descending FlightAware ADS-B
Tue 10:19:12 AM 49.7330 3.8810 210° Southwest 340 391 17,800 -2,025 Descending FlightAware ADS-B
Tue 10:19:52 AM 49.6770 3.8320 210° Southwest 339 390 16,400 -1,906 Descending FlightAware ADS-B
Tue 10:20:37 AM 49.6170 3.7790 210° Southwest 335 386 15,100 -988 Descending FlightAware ADS-B
Tue 10:21:17 AM 49.5610 3.7300 210° Southwest 333 383 15,000 -75 Descending FlightAware ADS-B
Tue 10:21:57 AM 49.5080 3.6830 210° Southwest 333 383 15,000 -424 Level FlightAware ADS-B
Tue 10:22:42 AM 49.4550 3.6250 215° Southwest 324 373 14,400 -1,000 Descending FlightAware ADS-B
Tue 10:22:57 AM 49.4440 3.5920 243° Southwest 321 369 14,000 -1,855 Descending FlightAware ADS-B
Tue 10:23:37 AM 49.4270 3.5020 254° West 322 371 12,700 -1,694 Descending FlightAware ADS-B
Tue 10:24:22 AM 49.4080 3.4080 253° West 314 361 11,600 -1,522 Descending FlightAware ADS-B
Tue 10:24:44 AM 49.3944 3.3565 248° West 314 361 11,000 -643 Descending FlightAware ADS-B
Tue 10:25:18 AM 49.3755 3.2864 248° West 298 343 11,000  Level FlightAware ADS-B
Tue 10:25:48 AM 49.3604 3.2309 247° West 275 316 11,000  Level FlightAware ADS-B
Tue 10:26:22 AM 49.3442 3.1710 247° West 275 316 11,000  Level FlightAware ADS-B
Tue 10:27:02 AM 49.3260 3.1040 247° West 274 315 11,000  Level FlightAware ADS-B
Tue 10:27:52 AM 49.3010 3.0120 247° West 275 316 11,000  Level FlightAware ADS-B
Tue 10:28:32 AM 49.2830 2.9450 248° West 276 318 11,000  Level FlightAware ADS-B
Tue 10:28:49 AM 49.2725 2.9062 248° West 275 316 11,000  Level FlightAware ADS-B
Tue 10:29:20 AM 49.2575 2.8517 247° West 274 315 11,000  Level FlightAware ADS-B
Tue 10:29:50 AM 49.2428 2.7979 247° West 275 316 11,000  Level FlightAware ADS-B
Tue 10:30:20 AM 49.2280 2.7438 247° West 276 318 11,000  Level FlightAware ADS-B
Tue 10:30:53 AM 49.2118 2.6847 247° West 277 319 11,000  Level FlightAware ADS-B
Tue 10:31:25 AM 49.1961 2.6279 247° West 275 316 11,000  Level FlightAware ADS-B
Tue 10:31:44 AM 49.1867 2.5932 247° West 274 315 11,000  Level FlightAware ADS-B
Tue 10:31:58 AM 49.1820 2.5675 254° West 276 318 11,000  Level FlightAware ADS-B
Tue 10:32:10 AM 49.1804 2.5439 264° West 278 320 11,000  Level FlightAware ADS-B
Tue 10:32:41 AM 49.1788 2.4837 268° West 277 319 11,000 -286 Level FlightAware ADS-B
Tue 10:33:13 AM 49.1776 2.4200 268° West 277 319 10,700 -968 Descending FlightAware ADS-B
Tue 10:33:43 AM 49.1763 2.3613 268° West 279 321 10,000 -1,277 Descending FlightAware ADS-B
Tue 10:34:00 AM 49.1756 2.3281 268° West 279 321 9,700 -1,273 Descending FlightAware ADS-B
Tue 10:34:16 AM 49.1749 2.2969 268° West 278 320 9,300 -1,161 Descending FlightAware ADS-B
Tue 10:34:31 AM 49.1742 2.2671 268° West 273 314 9,100 -667 Descending FlightAware ADS-B
Tue 10:34:43 AM 49.1738 2.2458 268° West 267 307 9,000 -250 Descending FlightAware ADS-B
Tue 10:34:55 AM 49.1733 2.2223 268° West 258 297 9,000  Level FlightAware ADS-B
Tue 10:35:11 AM 49.1727 2.1949 268° West 252 290 9,000  Level FlightAware ADS-B
Tue 10:35:21 AM 49.1710 2.1763 262° West 252 290 9,000  Level FlightAware ADS-B
Tue 10:35:26 AM 49.1694 2.1676 254° West 253 291 9,000  Level FlightAware ADS-B
Tue 10:35:39 AM 49.1643 2.1457 250° West 254 292 9,000  Level FlightAware ADS-B
Tue 10:35:54 AM 49.1578 2.1204 249° West 254 292 9,000  Level FlightAware ADS-B
Tue 10:36:06 AM 49.1527 2.1011 248° West 253 291 9,000 -444 Level FlightAware ADS-B
Tue 10:36:21 AM 49.1463 2.0761 249° West 250 288 8,800 -857 Descending FlightAware ADS-B
Tue 10:36:27 AM 49.1438 2.0664 248° West 249 287 8,700 -1,000 Descending FlightAware ADS-B
Tue 10:36:33 AM 49.1405 2.0570 242° Southwest 250 288 8,600 -1,200 Descending FlightAware ADS-B
Tue 10:36:37 AM 49.1380 2.0518 233° Southwest 250 288 8,500 -1,714 Descending FlightAware ADS-B
Tue 10:36:40 AM 49.1357 2.0479 228° Southwest 251 289 8,400 -1,500 Descending FlightAware ADS-B
Tue 10:36:45 AM 49.1312 2.0411 225° Southwest 251 289 8,300 -1,565 Descending FlightAware ADS-B
Tue 10:37:03 AM 49.1152 2.0206 220° Southwest 253 291 7,800 -1,459 Descending FlightAware ADS-B
Tue 10:37:22 AM 49.0985 1.9993 220° Southwest 254 292 7,400 -1,250 Descending FlightAware ADS-B
Tue 10:37:27 AM 49.0942 1.9940 219° Southwest 253 291 7,300 -1,500 Descending FlightAware ADS-B
Tue 10:37:30 AM 49.0905 1.9900 216° Southwest 253 291 7,200 -857 Descending FlightAware ADS-B
Tue 10:37:34 AM 49.0872 1.9871 209° Southwest 251 289 7,200 -1,000 Level FlightAware ADS-B
Tue 10:37:42 AM 49.0779 1.9822 199° South 251 289 7,000 -1,385 Descending FlightAware ADS-B
Tue 10:37:47 AM 49.0732 1.9811 189° South 244 281 6,900 -1,500 Descending FlightAware ADS-B
Tue 10:37:50 AM 49.0694 1.9805 186° South 243 280 6,800 -1,286 Descending FlightAware ADS-B
Tue 10:38:01 AM 49.0566 1.9794 183° South 242 278 6,600 -1,111 Descending FlightAware ADS-B
Tue 10:38:17 AM 49.0393 1.9787 182° South 243 280 6,300 -1,143 Descending FlightAware ADS-B
Tue 10:38:22 AM 49.0331 1.9784 182° South 241 277 6,200 -1,091 Descending FlightAware ADS-B
Tue 10:38:28 AM 49.0263 1.9788 178° South 238 274 6,100 -1,091 Descending FlightAware ADS-B
Tue 10:38:44 AM 49.0110 1.9881 158° South 231 266 5,800 -1,200 Descending FlightAware ADS-B
Tue 10:38:48 AM 49.0082 1.9919 138° Southeast 226 260 5,700 -750 Descending FlightAware ADS-B
Tue 10:38:52 AM 49.0053 1.9969 132° Southeast 224 258 5,700 -857 Level FlightAware ADS-B
Tue 10:38:55 AM 49.0032 2.0013 126° Southeast 222 255 5,600 -1,500 Descending FlightAware ADS-B
Tue 10:39:00 AM 49.0006 2.0069 125° Southeast 222 255 5,500 -1,200 Descending FlightAware ADS-B
Tue 10:39:15 AM 48.9924 2.0270 122° Southeast 221 254 5,200 -1,043 Descending FlightAware ADS-B
Tue 10:39:23 AM 48.9879 2.0379 122° Southeast 218 251 5,100 -960 Descending FlightAware ADS-B
Tue 10:39:40 AM 48.9786 2.0591 124° Southeast 221 254 4,800 -643 Descending FlightAware ADS-B
Tue 10:39:51 AM 48.9722 2.0732 125° Southeast 224 258 4,800  Level FlightAware ADS-B
Tue 10:39:55 AM 48.9700 2.0785 122° Southeast 222 255 4,800  Level FlightAware ADS-B
Tue 10:39:58 AM 48.9684 2.0836 116° Southeast 219 252 4,800  Level FlightAware ADS-B
Tue 10:40:01 AM 48.9676 2.0879 106° East 218 251 4,800  Level FlightAware ADS-B
Tue 10:40:05 AM 48.9671 2.0932 98° East 216 249 4,800  Level FlightAware ADS-B
Tue 10:40:11 AM 48.9670 2.1022 91° East 215 247 4,800  Level FlightAware ADS-B
Tue 10:40:20 AM 48.9678 2.1162 85° East 210 242 4,800  Level FlightAware ADS-B
Tue 10:40:33 AM 48.9690 2.1345 84° East 198 228 4,800  Level FlightAware ADS-B
Tue 10:40:50 AM 48.9703 2.1567 85° East 182 209 4,800  Level FlightAware ADS-B
Tue 10:41:05 AM 48.9714 2.1756 85° East 172 198 4,800  Level FlightAware ADS-B
Tue 10:41:20 AM 48.9723 2.1923 85° East 169 194 4,800  Level FlightAware ADS-B
Tue 10:41:35 AM 48.9733 2.2101 85° East 169 194 4,800 -200 Level FlightAware ADS-B
Tue 10:41:50 AM 48.9744 2.2280 85° East 172 198 4,700 -750 Descending FlightAware ADS-B
Tue 10:41:59 AM 48.9750 2.2394 85° East 173 199 4,500 -1,250 Descending FlightAware ADS-B
Tue 10:42:14 AM 48.9760 2.2578 85° East 173 199 4,200 -1,034 Descending FlightAware ADS-B
Tue 10:42:28 AM 48.9770 2.2749 85° East 173 199 4,000 -828 Descending FlightAware ADS-B
Tue 10:42:43 AM 48.9779 2.2920 85° East 172 198 3,800 -1,000 Descending FlightAware ADS-B
Tue 10:42:58 AM 48.9790 2.3100 85° East 173 199 3,500 -1,111 Descending FlightAware ADS-B
Tue 10:43:10 AM 48.9798 2.3253 85° East 175 201 3,300 -857 Descending FlightAware ADS-B
Tue 10:43:19 AM 48.9804 2.3363 85° East 175 201 3,200 -1,000 Descending FlightAware ADS-B
Tue 10:43:28 AM 48.9810 2.3473 85° East 173 199 3,000 -960 Descending FlightAware ADS-B
Tue 10:43:44 AM 48.9820 2.3657 85° East 171 197 2,800 -774 Descending FlightAware ADS-B
Tue 10:43:59 AM 48.9830 2.3836 85° East 170 196 2,600 -889 Descending FlightAware ADS-B
Tue 10:44:11 AM 48.9838 2.3985 85° East 170 196 2,400 -1,071 Descending FlightAware ADS-B
Tue 10:44:27 AM 48.9849 2.4173 85° East 165 190 2,100 -938 Descending FlightAware ADS-B
Tue 10:44:43 AM 48.9858 2.4344 85° East 155 178 1,900 -774 Descending FlightAware ADS-B
Tue 10:44:58 AM 48.9867 2.4510 85° East 151 174 1,700 -774 Descending FlightAware ADS-B
Tue 10:45:14 AM 48.9876 2.4673 85° East 149 171 1,500 -923 Descending FlightAware ADS-B
Tue 10:45:24 AM 48.9881 2.4773 86° East 144 166 1,300 -960 Descending FlightAware ADS-B
Tue 10:45:39 AM 48.9889 2.4922 85° East 136 157 1,100 -600 Descending FlightAware ADS-B
Tue 10:45:54 AM 48.9897 2.5064 85° East 134 154 1,000 -643 Descending FlightAware ADS-B
Tue 10:46:07 AM 48.9904 2.5181 85° East 134 154 800 -857 Descending FlightAware ADS-B
Tue 10:46:22 AM 48.9911 2.5328 86° East 134 154 600 -750 Descending FlightAware ADS-B
Tue 10:46:31 AM 48.9917 2.5414 84° East 135 155 500 -545 Descending FlightAware ADS-B
Tue 10:46:44 AM 48.9922 2.5535 86° East 135 155 400 -462 Descending FlightAware ADS-B

Login

Don't have an account? Register now (free) for customized features, flight alerts, and more!